<?xml version="1.0" encoding="UTF-8" standalone="no" ?>
<gpx xmlns="http://www.topografix.com/GPX/1/1" xmlns:xsi="http://www.w3.org/2001/XMLSchema-instance" xsi:schemaLocation="http://www.topografix.com/GPX/1/1 http://www.topografix.com/GPX/1/1/gpx.xsd" version="1.1" creator="VisuGPX - https://www.visugpx.com">
  <metadata>
    <name>20150426 M2 les bourgeons - Adomph</name>
    <desc><![CDATA[Régate Les Bourgeons.
Trace de Adomph
Manche 2 (finie en démâtage)]]></desc>
  </metadata>
  <trk>
    <name><![CDATA[20150426 M2 les bourgeons - Adomph_1]]></name>
    <trkseg>
      <trkpt lat="45.78138" lon="4.97951">
        <ele>235.5</ele>
        <time>2015-04-26T11:26:01Z</time>
      </trkpt>
      <trkpt lat="45.78136" lon="4.97958">
        <ele>232</ele>
        <time>2015-04-26T11:26:04Z</time>
      </trkpt>
      <trkpt lat="45.78141" lon="4.97963">
        <ele>232</ele>
        <time>2015-04-26T11:26:05Z</time>
      </trkpt>
      <trkpt lat="45.78142" lon="4.97966">
        <ele>233</ele>
        <time>2015-04-26T11:26:06Z</time>
      </trkpt>
      <trkpt lat="45.78148" lon="4.9797">
        <ele>233</ele>
        <time>2015-04-26T11:26:08Z</time>
      </trkpt>
      <trkpt lat="45.7815" lon="4.97972">
        <ele>233</ele>
        <time>2015-04-26T11:26:09Z</time>
      </trkpt>
      <trkpt lat="45.78153" lon="4.97976">
        <ele>233</ele>
        <time>2015-04-26T11:26:11Z</time>
      </trkpt>
      <trkpt lat="45.78155" lon="4.97979">
        <ele>233</ele>
        <time>2015-04-26T11:26:12Z</time>
      </trkpt>
      <trkpt lat="45.78159" lon="4.97983">
        <ele>233</ele>
        <time>2015-04-26T11:26:14Z</time>
      </trkpt>
      <trkpt lat="45.78161" lon="4.97986">
        <ele>234</ele>
        <time>2015-04-26T11:26:16Z</time>
      </trkpt>
      <trkpt lat="45.78164" lon="4.97989">
        <ele>233</ele>
        <time>2015-04-26T11:26:18Z</time>
      </trkpt>
      <trkpt lat="45.78167" lon="4.97992">
        <ele>234</ele>
        <time>2015-04-26T11:26:20Z</time>
      </trkpt>
      <trkpt lat="45.78169" lon="4.97995">
        <ele>234</ele>
        <time>2015-04-26T11:26:22Z</time>
      </trkpt>
      <trkpt lat="45.78173" lon="4.97999">
        <ele>234</ele>
        <time>2015-04-26T11:26:24Z</time>
      </trkpt>
      <trkpt lat="45.78176" lon="4.98002">
        <ele>235</ele>
        <time>2015-04-26T11:26:26Z</time>
      </trkpt>
      <trkpt lat="45.7818" lon="4.98005">
        <ele>235</ele>
        <time>2015-04-26T11:26:28Z</time>
      </trkpt>
      <trkpt lat="45.78183" lon="4.98009">
        <ele>234</ele>
        <time>2015-04-26T11:26:30Z</time>
      </trkpt>
      <trkpt lat="45.78188" lon="4.98012">
        <ele>234</ele>
        <time>2015-04-26T11:26:32Z</time>
      </trkpt>
      <trkpt lat="45.7819" lon="4.98014">
        <ele>235</ele>
        <time>2015-04-26T11:26:33Z</time>
      </trkpt>
      <trkpt lat="45.78195" lon="4.98018">
        <ele>235</ele>
        <time>2015-04-26T11:26:35Z</time>
      </trkpt>
      <trkpt lat="45.78197" lon="4.98019">
        <ele>235</ele>
        <time>2015-04-26T11:26:36Z</time>
      </trkpt>
      <trkpt lat="45.78201" lon="4.98024">
        <ele>236</ele>
        <time>2015-04-26T11:26:38Z</time>
      </trkpt>
      <trkpt lat="45.78203" lon="4.98026">
        <ele>237</ele>
        <time>2015-04-26T11:26:39Z</time>
      </trkpt>
      <trkpt lat="45.78206" lon="4.98032">
        <ele>237</ele>
        <time>2015-04-26T11:26:41Z</time>
      </trkpt>
      <trkpt lat="45.78208" lon="4.98034">
        <ele>237</ele>
        <time>2015-04-26T11:26:42Z</time>
      </trkpt>
      <trkpt lat="45.78212" lon="4.98039">
        <ele>236</ele>
        <time>2015-04-26T11:26:44Z</time>
      </trkpt>
      <trkpt lat="45.78215" lon="4.98041">
        <ele>236</ele>
        <time>2015-04-26T11:26:45Z</time>
      </trkpt>
      <trkpt lat="45.78219" lon="4.98044">
        <ele>237</ele>
        <time>2015-04-26T11:26:47Z</time>
      </trkpt>
      <trkpt lat="45.78222" lon="4.98046">
        <ele>237</ele>
        <time>2015-04-26T11:26:48Z</time>
      </trkpt>
      <trkpt lat="45.78226" lon="4.98049">
        <ele>236</ele>
        <time>2015-04-26T11:26:50Z</time>
      </trkpt>
      <trkpt lat="45.78229" lon="4.98051">
        <ele>236</ele>
        <time>2015-04-26T11:26:51Z</time>
      </trkpt>
      <trkpt lat="45.78233" lon="4.98055">
        <ele>236</ele>
        <time>2015-04-26T11:26:53Z</time>
      </trkpt>
      <trkpt lat="45.78235" lon="4.98057">
        <ele>236</ele>
        <time>2015-04-26T11:26:54Z</time>
      </trkpt>
      <trkpt lat="45.78239" lon="4.98062">
        <ele>235</ele>
        <time>2015-04-26T11:26:56Z</time>
      </trkpt>
      <trkpt lat="45.78241" lon="4.98064">
        <ele>236</ele>
        <time>2015-04-26T11:26:57Z</time>
      </trkpt>
      <trkpt lat="45.78245" lon="4.98067">
        <ele>236</ele>
        <time>2015-04-26T11:26:59Z</time>
      </trkpt>
      <trkpt lat="45.78247" lon="4.98069">
        <ele>235</ele>
        <time>2015-04-26T11:27:00Z</time>
      </trkpt>
      <trkpt lat="45.78252" lon="4.98071">
        <ele>235</ele>
        <time>2015-04-26T11:27:02Z</time>
      </trkpt>
      <trkpt lat="45.78254" lon="4.98073">
        <ele>235</ele>
        <time>2015-04-26T11:27:03Z</time>
      </trkpt>
      <trkpt lat="45.78258" lon="4.98076">
        <ele>235</ele>
        <time>2015-04-26T11:27:05Z</time>
      </trkpt>
      <trkpt lat="45.7826" lon="4.98077">
        <ele>235</ele>
        <time>2015-04-26T11:27:06Z</time>
      </trkpt>
      <trkpt lat="45.78265" lon="4.98081">
        <ele>236</ele>
        <time>2015-04-26T11:27:08Z</time>
      </trkpt>
      <trkpt lat="45.78267" lon="4.98083">
        <ele>236</ele>
        <time>2015-04-26T11:27:09Z</time>
      </trkpt>
      <trkpt lat="45.78273" lon="4.98087">
        <ele>236</ele>
        <time>2015-04-26T11:27:11Z</time>
      </trkpt>
      <trkpt lat="45.78275" lon="4.98089">
        <ele>236</ele>
        <time>2015-04-26T11:27:12Z</time>
      </trkpt>
      <trkpt lat="45.78281" lon="4.98092">
        <ele>236</ele>
        <time>2015-04-26T11:27:14Z</time>
      </trkpt>
      <trkpt lat="45.78284" lon="4.98093">
        <ele>236</ele>
        <time>2015-04-26T11:27:15Z</time>
      </trkpt>
      <trkpt lat="45.7829" lon="4.98095">
        <ele>236</ele>
        <time>2015-04-26T11:27:17Z</time>
      </trkpt>
      <trkpt lat="45.78292" lon="4.98095">
        <ele>236</ele>
        <time>2015-04-26T11:27:18Z</time>
      </trkpt>
      <trkpt lat="45.78297" lon="4.98095">
        <ele>236</ele>
        <time>2015-04-26T11:27:20Z</time>
      </trkpt>
      <trkpt lat="45.783" lon="4.98096">
        <ele>235</ele>
        <time>2015-04-26T11:27:21Z</time>
      </trkpt>
      <trkpt lat="45.78304" lon="4.98097">
        <ele>236</ele>
        <time>2015-04-26T11:27:23Z</time>
      </trkpt>
      <trkpt lat="45.78307" lon="4.98098">
        <ele>235</ele>
        <time>2015-04-26T11:27:25Z</time>
      </trkpt>
      <trkpt lat="45.78313" lon="4.981">
        <ele>235</ele>
        <time>2015-04-26T11:27:27Z</time>
      </trkpt>
      <trkpt lat="45.78316" lon="4.98101">
        <ele>235</ele>
        <time>2015-04-26T11:27:29Z</time>
      </trkpt>
      <trkpt lat="45.78321" lon="4.98105">
        <ele>236</ele>
        <time>2015-04-26T11:27:31Z</time>
      </trkpt>
      <trkpt lat="45.78322" lon="4.98107">
        <ele>236</ele>
        <time>2015-04-26T11:27:32Z</time>
      </trkpt>
      <trkpt lat="45.78325" lon="4.98113">
        <ele>235</ele>
        <time>2015-04-26T11:27:34Z</time>
      </trkpt>
      <trkpt lat="45.78326" lon="4.98116">
        <ele>235</ele>
        <time>2015-04-26T11:27:35Z</time>
      </trkpt>
      <trkpt lat="45.78327" lon="4.98122">
        <ele>236</ele>
        <time>2015-04-26T11:27:37Z</time>
      </trkpt>
      <trkpt lat="45.78329" lon="4.98128">
        <ele>236</ele>
        <time>2015-04-26T11:27:39Z</time>
      </trkpt>
      <trkpt lat="45.78329" lon="4.98134">
        <ele>236</ele>
        <time>2015-04-26T11:27:41Z</time>
      </trkpt>
      <trkpt lat="45.78329" lon="4.98141">
        <ele>237</ele>
        <time>2015-04-26T11:27:43Z</time>
      </trkpt>
      <trkpt lat="45.78329" lon="4.98147">
        <ele>236</ele>
        <time>2015-04-26T11:27:45Z</time>
      </trkpt>
      <trkpt lat="45.78329" lon="4.98153">
        <ele>237</ele>
        <time>2015-04-26T11:27:47Z</time>
      </trkpt>
      <trkpt lat="45.78329" lon="4.9816">
        <ele>237</ele>
        <time>2015-04-26T11:27:49Z</time>
      </trkpt>
      <trkpt lat="45.78329" lon="4.98163">
        <ele>237</ele>
        <time>2015-04-26T11:27:50Z</time>
      </trkpt>
      <trkpt lat="45.78329" lon="4.98169">
        <ele>237</ele>
        <time>2015-04-26T11:27:52Z</time>
      </trkpt>
      <trkpt lat="45.78329" lon="4.98173">
        <ele>237</ele>
        <time>2015-04-26T11:27:53Z</time>
      </trkpt>
      <trkpt lat="45.78329" lon="4.98179">
        <ele>237</ele>
        <time>2015-04-26T11:27:55Z</time>
      </trkpt>
      <trkpt lat="45.78329" lon="4.98183">
        <ele>237</ele>
        <time>2015-04-26T11:27:56Z</time>
      </trkpt>
      <trkpt lat="45.78329" lon="4.9819">
        <ele>237</ele>
        <time>2015-04-26T11:27:58Z</time>
      </trkpt>
      <trkpt lat="45.78329" lon="4.98193">
        <ele>236</ele>
        <time>2015-04-26T11:27:59Z</time>
      </trkpt>
      <trkpt lat="45.78328" lon="4.982">
        <ele>236</ele>
        <time>2015-04-26T11:28:01Z</time>
      </trkpt>
      <trkpt lat="45.78328" lon="4.98204">
        <ele>236</ele>
        <time>2015-04-26T11:28:02Z</time>
      </trkpt>
      <trkpt lat="45.78326" lon="4.9821">
        <ele>236</ele>
        <time>2015-04-26T11:28:04Z</time>
      </trkpt>
      <trkpt lat="45.78325" lon="4.98213">
        <ele>237</ele>
        <time>2015-04-26T11:28:05Z</time>
      </trkpt>
      <trkpt lat="45.78323" lon="4.9822">
        <ele>236</ele>
        <time>2015-04-26T11:28:07Z</time>
      </trkpt>
      <trkpt lat="45.78323" lon="4.98223">
        <ele>236</ele>
        <time>2015-04-26T11:28:08Z</time>
      </trkpt>
      <trkpt lat="45.78322" lon="4.98229">
        <ele>236</ele>
        <time>2015-04-26T11:28:10Z</time>
      </trkpt>
      <trkpt lat="45.7832" lon="4.98234">
        <ele>236</ele>
        <time>2015-04-26T11:28:12Z</time>
      </trkpt>
      <trkpt lat="45.78321" lon="4.9824">
        <ele>235</ele>
        <time>2015-04-26T11:28:14Z</time>
      </trkpt>
      <trkpt lat="45.78321" lon="4.98246">
        <ele>236</ele>
        <time>2015-04-26T11:28:16Z</time>
      </trkpt>
      <trkpt lat="45.7832" lon="4.98252">
        <ele>236</ele>
        <time>2015-04-26T11:28:18Z</time>
      </trkpt>
      <trkpt lat="45.78319" lon="4.98258">
        <ele>236</ele>
        <time>2015-04-26T11:28:20Z</time>
      </trkpt>
      <trkpt lat="45.78318" lon="4.98263">
        <ele>236</ele>
        <time>2015-04-26T11:28:22Z</time>
      </trkpt>
      <trkpt lat="45.78316" lon="4.98268">
        <ele>236</ele>
        <time>2015-04-26T11:28:24Z</time>
      </trkpt>
      <trkpt lat="45.78313" lon="4.98272">
        <ele>236</ele>
        <time>2015-04-26T11:28:26Z</time>
      </trkpt>
      <trkpt lat="45.78311" lon="4.98275">
        <ele>236</ele>
        <time>2015-04-26T11:28:28Z</time>
      </trkpt>
      <trkpt lat="45.78308" lon="4.98279">
        <ele>236</ele>
        <time>2015-04-26T11:28:30Z</time>
      </trkpt>
      <trkpt lat="45.78307" lon="4.98283">
        <ele>235</ele>
        <time>2015-04-26T11:28:32Z</time>
      </trkpt>
      <trkpt lat="45.78306" lon="4.98288">
        <ele>235</ele>
        <time>2015-04-26T11:28:34Z</time>
      </trkpt>
      <trkpt lat="45.78304" lon="4.98294">
        <ele>235</ele>
        <time>2015-04-26T11:28:36Z</time>
      </trkpt>
      <trkpt lat="45.78303" lon="4.98301">
        <ele>235</ele>
        <time>2015-04-26T11:28:38Z</time>
      </trkpt>
      <trkpt lat="45.78302" lon="4.98304">
        <ele>235</ele>
        <time>2015-04-26T11:28:39Z</time>
      </trkpt>
      <trkpt lat="45.783" lon="4.98311">
        <ele>235</ele>
        <time>2015-04-26T11:28:41Z</time>
      </trkpt>
      <trkpt lat="45.78299" lon="4.98314">
        <ele>235</ele>
        <time>2015-04-26T11:28:42Z</time>
      </trkpt>
      <trkpt lat="45.78296" lon="4.9832">
        <ele>235</ele>
        <time>2015-04-26T11:28:44Z</time>
      </trkpt>
      <trkpt lat="45.78295" lon="4.98323">
        <ele>235</ele>
        <time>2015-04-26T11:28:45Z</time>
      </trkpt>
      <trkpt lat="45.78293" lon="4.98329">
        <ele>235</ele>
        <time>2015-04-26T11:28:47Z</time>
      </trkpt>
      <trkpt lat="45.78292" lon="4.98332">
        <ele>235</ele>
        <time>2015-04-26T11:28:48Z</time>
      </trkpt>
      <trkpt lat="45.78289" lon="4.98339">
        <ele>235</ele>
        <time>2015-04-26T11:28:50Z</time>
      </trkpt>
      <trkpt lat="45.78288" lon="4.98342">
        <ele>236</ele>
        <time>2015-04-26T11:28:51Z</time>
      </trkpt>
      <trkpt lat="45.78286" lon="4.98349">
        <ele>236</ele>
        <time>2015-04-26T11:28:53Z</time>
      </trkpt>
      <trkpt lat="45.78285" lon="4.98352">
        <ele>236</ele>
        <time>2015-04-26T11:28:54Z</time>
      </trkpt>
      <trkpt lat="45.78284" lon="4.98359">
        <ele>236</ele>
        <time>2015-04-26T11:28:56Z</time>
      </trkpt>
      <trkpt lat="45.78284" lon="4.98363">
        <ele>236</ele>
        <time>2015-04-26T11:28:57Z</time>
      </trkpt>
      <trkpt lat="45.78282" lon="4.9837">
        <ele>236</ele>
        <time>2015-04-26T11:28:59Z</time>
      </trkpt>
      <trkpt lat="45.78282" lon="4.98373">
        <ele>236</ele>
        <time>2015-04-26T11:29:00Z</time>
      </trkpt>
      <trkpt lat="45.7828" lon="4.9838">
        <ele>236</ele>
        <time>2015-04-26T11:29:02Z</time>
      </trkpt>
      <trkpt lat="45.7828" lon="4.98384">
        <ele>236</ele>
        <time>2015-04-26T11:29:03Z</time>
      </trkpt>
      <trkpt lat="45.78279" lon="4.9839">
        <ele>235</ele>
        <time>2015-04-26T11:29:05Z</time>
      </trkpt>
      <trkpt lat="45.78278" lon="4.98393">
        <ele>235</ele>
        <time>2015-04-26T11:29:06Z</time>
      </trkpt>
      <trkpt lat="45.78276" lon="4.984">
        <ele>236</ele>
        <time>2015-04-26T11:29:08Z</time>
      </trkpt>
      <trkpt lat="45.78275" lon="4.98403">
        <ele>235</ele>
        <time>2015-04-26T11:29:09Z</time>
      </trkpt>
      <trkpt lat="45.78273" lon="4.9841">
        <ele>235</ele>
        <time>2015-04-26T11:29:11Z</time>
      </trkpt>
      <trkpt lat="45.78272" lon="4.98413">
        <ele>235</ele>
        <time>2015-04-26T11:29:12Z</time>
      </trkpt>
      <trkpt lat="45.78272" lon="4.98419">
        <ele>235</ele>
        <time>2015-04-26T11:29:14Z</time>
      </trkpt>
      <trkpt lat="45.78271" lon="4.98425">
        <ele>235</ele>
        <time>2015-04-26T11:29:16Z</time>
      </trkpt>
      <trkpt lat="45.7827" lon="4.98431">
        <ele>235</ele>
        <time>2015-04-26T11:29:18Z</time>
      </trkpt>
      <trkpt lat="45.78268" lon="4.98436">
        <ele>234</ele>
        <time>2015-04-26T11:29:20Z</time>
      </trkpt>
      <trkpt lat="45.78264" lon="4.98439">
        <ele>234</ele>
        <time>2015-04-26T11:29:22Z</time>
      </trkpt>
      <trkpt lat="45.78261" lon="4.98439">
        <ele>235</ele>
        <time>2015-04-26T11:29:25Z</time>
      </trkpt>
      <trkpt lat="45.78257" lon="4.98438">
        <ele>235</ele>
        <time>2015-04-26T11:29:27Z</time>
      </trkpt>
      <trkpt lat="45.78254" lon="4.98437">
        <ele>234</ele>
        <time>2015-04-26T11:29:30Z</time>
      </trkpt>
      <trkpt lat="45.78251" lon="4.98433">
        <ele>234</ele>
        <time>2015-04-26T11:29:32Z</time>
      </trkpt>
      <trkpt lat="45.7825" lon="4.98429">
        <ele>235</ele>
        <time>2015-04-26T11:29:34Z</time>
      </trkpt>
      <trkpt lat="45.7825" lon="4.98424">
        <ele>235</ele>
        <time>2015-04-26T11:29:36Z</time>
      </trkpt>
      <trkpt lat="45.7825" lon="4.98417">
        <ele>235</ele>
        <time>2015-04-26T11:29:38Z</time>
      </trkpt>
      <trkpt lat="45.7825" lon="4.98413">
        <ele>235</ele>
        <time>2015-04-26T11:29:39Z</time>
      </trkpt>
      <trkpt lat="45.78251" lon="4.98406">
        <ele>234</ele>
        <time>2015-04-26T11:29:41Z</time>
      </trkpt>
      <trkpt lat="45.78251" lon="4.98402">
        <ele>235</ele>
        <time>2015-04-26T11:29:42Z</time>
      </trkpt>
      <trkpt lat="45.78253" lon="4.98394">
        <ele>235</ele>
        <time>2015-04-26T11:29:44Z</time>
      </trkpt>
      <trkpt lat="45.78255" lon="4.9839">
        <ele>235</ele>
        <time>2015-04-26T11:29:45Z</time>
      </trkpt>
      <trkpt lat="45.78259" lon="4.98383">
        <ele>234</ele>
        <time>2015-04-26T11:29:47Z</time>
      </trkpt>
      <trkpt lat="45.78261" lon="4.98381">
        <ele>234</ele>
        <time>2015-04-26T11:29:48Z</time>
      </trkpt>
      <trkpt lat="45.78265" lon="4.98376">
        <ele>235</ele>
        <time>2015-04-26T11:29:50Z</time>
      </trkpt>
      <trkpt lat="45.78267" lon="4.98374">
        <ele>235</ele>
        <time>2015-04-26T11:29:51Z</time>
      </trkpt>
      <trkpt lat="45.78272" lon="4.9837">
        <ele>235</ele>
        <time>2015-04-26T11:29:53Z</time>
      </trkpt>
      <trkpt lat="45.78273" lon="4.98368">
        <ele>235</ele>
        <time>2015-04-26T11:29:54Z</time>
      </trkpt>
      <trkpt lat="45.78277" lon="4.98364">
        <ele>235</ele>
        <time>2015-04-26T11:29:56Z</time>
      </trkpt>
      <trkpt lat="45.78279" lon="4.98362">
        <ele>235</ele>
        <time>2015-04-26T11:29:57Z</time>
      </trkpt>
      <trkpt lat="45.78282" lon="4.98358">
        <ele>235</ele>
        <time>2015-04-26T11:29:59Z</time>
      </trkpt>
      <trkpt lat="45.78284" lon="4.98355">
        <ele>235</ele>
        <time>2015-04-26T11:30:00Z</time>
      </trkpt>
      <trkpt lat="45.78288" lon="4.98351">
        <ele>234</ele>
        <time>2015-04-26T11:30:02Z</time>
      </trkpt>
      <trkpt lat="45.7829" lon="4.98348">
        <ele>234</ele>
        <time>2015-04-26T11:30:03Z</time>
      </trkpt>
      <trkpt lat="45.78293" lon="4.98344">
        <ele>234</ele>
        <time>2015-04-26T11:30:05Z</time>
      </trkpt>
      <trkpt lat="45.78295" lon="4.98342">
        <ele>234</ele>
        <time>2015-04-26T11:30:06Z</time>
      </trkpt>
      <trkpt lat="45.78299" lon="4.98337">
        <ele>234</ele>
        <time>2015-04-26T11:30:08Z</time>
      </trkpt>
      <trkpt lat="45.78301" lon="4.98334">
        <ele>234</ele>
        <time>2015-04-26T11:30:09Z</time>
      </trkpt>
      <trkpt lat="45.78304" lon="4.98329">
        <ele>234</ele>
        <time>2015-04-26T11:30:11Z</time>
      </trkpt>
      <trkpt lat="45.78306" lon="4.98327">
        <ele>234</ele>
        <time>2015-04-26T11:30:12Z</time>
      </trkpt>
      <trkpt lat="45.7831" lon="4.98322">
        <ele>235</ele>
        <time>2015-04-26T11:30:14Z</time>
      </trkpt>
      <trkpt lat="45.78311" lon="4.9832">
        <ele>235</ele>
        <time>2015-04-26T11:30:15Z</time>
      </trkpt>
      <trkpt lat="45.78314" lon="4.98315">
        <ele>235</ele>
        <time>2015-04-26T11:30:17Z</time>
      </trkpt>
      <trkpt lat="45.78315" lon="4.98312">
        <ele>235</ele>
        <time>2015-04-26T11:30:18Z</time>
      </trkpt>
      <trkpt lat="45.78317" lon="4.98306">
        <ele>235</ele>
        <time>2015-04-26T11:30:20Z</time>
      </trkpt>
      <trkpt lat="45.78318" lon="4.98301">
        <ele>235</ele>
        <time>2015-04-26T11:30:22Z</time>
      </trkpt>
      <trkpt lat="45.78319" lon="4.98293">
        <ele>235</ele>
        <time>2015-04-26T11:30:24Z</time>
      </trkpt>
      <trkpt lat="45.78319" lon="4.98289">
        <ele>235.5</ele>
        <time>2015-04-26T11:30:26Z</time>
      </trkpt>
      <trkpt lat="45.7832" lon="4.98281">
        <ele>236</ele>
        <time>2015-04-26T11:30:28Z</time>
      </trkpt>
      <trkpt lat="45.7832" lon="4.98278">
        <ele>236</ele>
        <time>2015-04-26T11:30:29Z</time>
      </trkpt>
      <trkpt lat="45.7832" lon="4.98272">
        <ele>236</ele>
        <time>2015-04-26T11:30:31Z</time>
      </trkpt>
      <trkpt lat="45.7832" lon="4.98268">
        <ele>236</ele>
        <time>2015-04-26T11:30:32Z</time>
      </trkpt>
      <trkpt lat="45.78319" lon="4.9826">
        <ele>236</ele>
        <time>2015-04-26T11:30:34Z</time>
      </trkpt>
      <trkpt lat="45.78319" lon="4.98256">
        <ele>235</ele>
        <time>2015-04-26T11:30:35Z</time>
      </trkpt>
      <trkpt lat="45.78318" lon="4.98248">
        <ele>236</ele>
        <time>2015-04-26T11:30:37Z</time>
      </trkpt>
      <trkpt lat="45.78318" lon="4.98243">
        <ele>236</ele>
        <time>2015-04-26T11:30:39Z</time>
      </trkpt>
      <trkpt lat="45.78315" lon="4.98241">
        <ele>236</ele>
        <time>2015-04-26T11:30:42Z</time>
      </trkpt>
      <trkpt lat="45.78311" lon="4.98243">
        <ele>236</ele>
        <time>2015-04-26T11:30:44Z</time>
      </trkpt>
      <trkpt lat="45.78308" lon="4.98245">
        <ele>236</ele>
        <time>2015-04-26T11:30:49Z</time>
      </trkpt>
      <trkpt lat="45.78306" lon="4.98242">
        <ele>235</ele>
        <time>2015-04-26T11:30:54Z</time>
      </trkpt>
      <trkpt lat="45.78305" lon="4.98236">
        <ele>235</ele>
        <time>2015-04-26T11:30:56Z</time>
      </trkpt>
      <trkpt lat="45.78304" lon="4.98232">
        <ele>235</ele>
        <time>2015-04-26T11:30:57Z</time>
      </trkpt>
      <trkpt lat="45.78303" lon="4.98225">
        <ele>235</ele>
        <time>2015-04-26T11:30:59Z</time>
      </trkpt>
      <trkpt lat="45.78303" lon="4.9822">
        <ele>236</ele>
        <time>2015-04-26T11:31:00Z</time>
      </trkpt>
      <trkpt lat="45.78307" lon="4.98214">
        <ele>236</ele>
        <time>2015-04-26T11:31:02Z</time>
      </trkpt>
      <trkpt lat="45.78309" lon="4.98211">
        <ele>236</ele>
        <time>2015-04-26T11:31:03Z</time>
      </trkpt>
      <trkpt lat="45.78313" lon="4.98207">
        <ele>236</ele>
        <time>2015-04-26T11:31:05Z</time>
      </trkpt>
      <trkpt lat="45.78316" lon="4.98205">
        <ele>236</ele>
        <time>2015-04-26T11:31:06Z</time>
      </trkpt>
      <trkpt lat="45.7832" lon="4.98201">
        <ele>236</ele>
        <time>2015-04-26T11:31:08Z</time>
      </trkpt>
      <trkpt lat="45.78322" lon="4.98199">
        <ele>236</ele>
        <time>2015-04-26T11:31:09Z</time>
      </trkpt>
      <trkpt lat="45.78326" lon="4.98195">
        <ele>236</ele>
        <time>2015-04-26T11:31:11Z</time>
      </trkpt>
      <trkpt lat="45.78329" lon="4.98193">
        <ele>236</ele>
        <time>2015-04-26T11:31:13Z</time>
      </trkpt>
      <trkpt lat="45.78333" lon="4.98188">
        <ele>236</ele>
        <time>2015-04-26T11:31:15Z</time>
      </trkpt>
      <trkpt lat="45.78335" lon="4.98186">
        <ele>236</ele>
        <time>2015-04-26T11:31:16Z</time>
      </trkpt>
      <trkpt lat="45.78339" lon="4.98182">
        <ele>236</ele>
        <time>2015-04-26T11:31:18Z</time>
      </trkpt>
      <trkpt lat="45.7834" lon="4.98179">
        <ele>236</ele>
        <time>2015-04-26T11:31:19Z</time>
      </trkpt>
      <trkpt lat="45.78342" lon="4.98173">
        <ele>236</ele>
        <time>2015-04-26T11:31:21Z</time>
      </trkpt>
      <trkpt lat="45.78343" lon="4.9817">
        <ele>236</ele>
        <time>2015-04-26T11:31:22Z</time>
      </trkpt>
      <trkpt lat="45.78345" lon="4.98162">
        <ele>236</ele>
        <time>2015-04-26T11:31:24Z</time>
      </trkpt>
      <trkpt lat="45.78345" lon="4.98158">
        <ele>236</ele>
        <time>2015-04-26T11:31:25Z</time>
      </trkpt>
      <trkpt lat="45.78345" lon="4.98149">
        <ele>236</ele>
        <time>2015-04-26T11:31:27Z</time>
      </trkpt>
      <trkpt lat="45.78345" lon="4.98145">
        <ele>236</ele>
        <time>2015-04-26T11:31:28Z</time>
      </trkpt>
      <trkpt lat="45.78345" lon="4.98138">
        <ele>236</ele>
        <time>2015-04-26T11:31:30Z</time>
      </trkpt>
      <trkpt lat="45.78342" lon="4.98135">
        <ele>236.7</ele>
        <time>2015-04-26T11:31:32Z</time>
      </trkpt>
      <trkpt lat="45.78338" lon="4.98138">
        <ele>236</ele>
        <time>2015-04-26T11:31:35Z</time>
      </trkpt>
      <trkpt lat="45.78337" lon="4.98142">
        <ele>236</ele>
        <time>2015-04-26T11:31:37Z</time>
      </trkpt>
      <trkpt lat="45.78335" lon="4.98146">
        <ele>236</ele>
        <time>2015-04-26T11:31:41Z</time>
      </trkpt>
      <trkpt lat="45.78336" lon="4.9815">
        <ele>236</ele>
        <time>2015-04-26T11:31:45Z</time>
      </trkpt>
      <trkpt lat="45.78336" lon="4.98155">
        <ele>235</ele>
        <time>2015-04-26T11:31:47Z</time>
      </trkpt>
      <trkpt lat="45.78336" lon="4.9816">
        <ele>236</ele>
        <time>2015-04-26T11:31:49Z</time>
      </trkpt>
      <trkpt lat="45.78336" lon="4.98166">
        <ele>236</ele>
        <time>2015-04-26T11:31:51Z</time>
      </trkpt>
      <trkpt lat="45.78335" lon="4.98171">
        <ele>236</ele>
        <time>2015-04-26T11:31:53Z</time>
      </trkpt>
      <trkpt lat="45.78332" lon="4.98175">
        <ele>236</ele>
        <time>2015-04-26T11:31:55Z</time>
      </trkpt>
      <trkpt lat="45.7833" lon="4.98178">
        <ele>236</ele>
        <time>2015-04-26T11:31:58Z</time>
      </trkpt>
      <trkpt lat="45.78327" lon="4.9818">
        <ele>236</ele>
        <time>2015-04-26T11:32:02Z</time>
      </trkpt>
      <trkpt lat="45.78327" lon="4.98185">
        <ele>236</ele>
        <time>2015-04-26T11:32:06Z</time>
      </trkpt>
      <trkpt lat="45.78327" lon="4.9819">
        <ele>236</ele>
        <time>2015-04-26T11:32:08Z</time>
      </trkpt>
      <trkpt lat="45.78327" lon="4.98195">
        <ele>236</ele>
        <time>2015-04-26T11:32:10Z</time>
      </trkpt>
      <trkpt lat="45.78328" lon="4.982">
        <ele>236</ele>
        <time>2015-04-26T11:32:12Z</time>
      </trkpt>
      <trkpt lat="45.7833" lon="4.98207">
        <ele>236</ele>
        <time>2015-04-26T11:32:14Z</time>
      </trkpt>
      <trkpt lat="45.78332" lon="4.9821">
        <ele>236</ele>
        <time>2015-04-26T11:32:15Z</time>
      </trkpt>
      <trkpt lat="45.78334" lon="4.98216">
        <ele>236</ele>
        <time>2015-04-26T11:32:17Z</time>
      </trkpt>
      <trkpt lat="45.78334" lon="4.9822">
        <ele>236</ele>
        <time>2015-04-26T11:32:18Z</time>
      </trkpt>
      <trkpt lat="45.78334" lon="4.98226">
        <ele>236</ele>
        <time>2015-04-26T11:32:20Z</time>
      </trkpt>
      <trkpt lat="45.78335" lon="4.98232">
        <ele>236</ele>
        <time>2015-04-26T11:32:22Z</time>
      </trkpt>
      <trkpt lat="45.78336" lon="4.98236">
        <ele>235</ele>
        <time>2015-04-26T11:32:23Z</time>
      </trkpt>
      <trkpt lat="45.78335" lon="4.98243">
        <ele>235</ele>
        <time>2015-04-26T11:32:25Z</time>
      </trkpt>
      <trkpt lat="45.78334" lon="4.98246">
        <ele>235</ele>
        <time>2015-04-26T11:32:26Z</time>
      </trkpt>
      <trkpt lat="45.78333" lon="4.98253">
        <ele>235</ele>
        <time>2015-04-26T11:32:28Z</time>
      </trkpt>
      <trkpt lat="45.78332" lon="4.98256">
        <ele>236</ele>
        <time>2015-04-26T11:32:29Z</time>
      </trkpt>
      <trkpt lat="45.7833" lon="4.98262">
        <ele>235</ele>
        <time>2015-04-26T11:32:31Z</time>
      </trkpt>
      <trkpt lat="45.78329" lon="4.98265">
        <ele>235</ele>
        <time>2015-04-26T11:32:32Z</time>
      </trkpt>
      <trkpt lat="45.78326" lon="4.98271">
        <ele>235</ele>
        <time>2015-04-26T11:32:34Z</time>
      </trkpt>
      <trkpt lat="45.78325" lon="4.98274">
        <ele>236</ele>
        <time>2015-04-26T11:32:35Z</time>
      </trkpt>
      <trkpt lat="45.78322" lon="4.98279">
        <ele>236</ele>
        <time>2015-04-26T11:32:37Z</time>
      </trkpt>
      <trkpt lat="45.78321" lon="4.98281">
        <ele>236</ele>
        <time>2015-04-26T11:32:38Z</time>
      </trkpt>
      <trkpt lat="45.78318" lon="4.98287">
        <ele>235</ele>
        <time>2015-04-26T11:32:40Z</time>
      </trkpt>
      <trkpt lat="45.78317" lon="4.98289">
        <ele>235</ele>
        <time>2015-04-26T11:32:41Z</time>
      </trkpt>
      <trkpt lat="45.78315" lon="4.98295">
        <ele>235</ele>
        <time>2015-04-26T11:32:43Z</time>
      </trkpt>
      <trkpt lat="45.78313" lon="4.98298">
        <ele>235</ele>
        <time>2015-04-26T11:32:44Z</time>
      </trkpt>
      <trkpt lat="45.78311" lon="4.98303">
        <ele>235</ele>
        <time>2015-04-26T11:32:46Z</time>
      </trkpt>
      <trkpt lat="45.7831" lon="4.98306">
        <ele>235</ele>
        <time>2015-04-26T11:32:47Z</time>
      </trkpt>
      <trkpt lat="45.78307" lon="4.98312">
        <ele>235</ele>
        <time>2015-04-26T11:32:49Z</time>
      </trkpt>
      <trkpt lat="45.78306" lon="4.98315">
        <ele>235</ele>
        <time>2015-04-26T11:32:50Z</time>
      </trkpt>
      <trkpt lat="45.78304" lon="4.98321">
        <ele>235</ele>
        <time>2015-04-26T11:32:52Z</time>
      </trkpt>
      <trkpt lat="45.78303" lon="4.98324">
        <ele>235</ele>
        <time>2015-04-26T11:32:53Z</time>
      </trkpt>
      <trkpt lat="45.78301" lon="4.9833">
        <ele>235</ele>
        <time>2015-04-26T11:32:55Z</time>
      </trkpt>
      <trkpt lat="45.78299" lon="4.98333">
        <ele>235</ele>
        <time>2015-04-26T11:32:56Z</time>
      </trkpt>
      <trkpt lat="45.78296" lon="4.98337">
        <ele>234</ele>
        <time>2015-04-26T11:32:58Z</time>
      </trkpt>
      <trkpt lat="45.78294" lon="4.98339">
        <ele>234</ele>
        <time>2015-04-26T11:32:59Z</time>
      </trkpt>
      <trkpt lat="45.7829" lon="4.98343">
        <ele>234</ele>
        <time>2015-04-26T11:33:01Z</time>
      </trkpt>
      <trkpt lat="45.78287" lon="4.98347">
        <ele>234</ele>
        <time>2015-04-26T11:33:03Z</time>
      </trkpt>
      <trkpt lat="45.78284" lon="4.98351">
        <ele>234</ele>
        <time>2015-04-26T11:33:05Z</time>
      </trkpt>
      <trkpt lat="45.78281" lon="4.98355">
        <ele>234</ele>
        <time>2015-04-26T11:33:07Z</time>
      </trkpt>
      <trkpt lat="45.78278" lon="4.9836">
        <ele>234</ele>
        <time>2015-04-26T11:33:09Z</time>
      </trkpt>
      <trkpt lat="45.78275" lon="4.98363">
        <ele>235</ele>
        <time>2015-04-26T11:33:11Z</time>
      </trkpt>
      <trkpt lat="45.78272" lon="4.98366">
        <ele>235</ele>
        <time>2015-04-26T11:33:13Z</time>
      </trkpt>
      <trkpt lat="45.78268" lon="4.9837">
        <ele>235</ele>
        <time>2015-04-26T11:33:15Z</time>
      </trkpt>
      <trkpt lat="45.78265" lon="4.98373">
        <ele>235</ele>
        <time>2015-04-26T11:33:17Z</time>
      </trkpt>
      <trkpt lat="45.78262" lon="4.98376">
        <ele>235</ele>
        <time>2015-04-26T11:33:19Z</time>
      </trkpt>
      <trkpt lat="45.7826" lon="4.98379">
        <ele>235</ele>
        <time>2015-04-26T11:33:21Z</time>
      </trkpt>
      <trkpt lat="45.78256" lon="4.9838">
        <ele>235</ele>
        <time>2015-04-26T11:33:24Z</time>
      </trkpt>
      <trkpt lat="45.78253" lon="4.98376">
        <ele>235</ele>
        <time>2015-04-26T11:33:26Z</time>
      </trkpt>
      <trkpt lat="45.78251" lon="4.98372">
        <ele>235</ele>
        <time>2015-04-26T11:33:28Z</time>
      </trkpt>
      <trkpt lat="45.78248" lon="4.98369">
        <ele>235</ele>
        <time>2015-04-26T11:33:30Z</time>
      </trkpt>
      <trkpt lat="45.78245" lon="4.98365">
        <ele>235</ele>
        <time>2015-04-26T11:33:32Z</time>
      </trkpt>
      <trkpt lat="45.78243" lon="4.98362">
        <ele>235</ele>
        <time>2015-04-26T11:33:33Z</time>
      </trkpt>
      <trkpt lat="45.78239" lon="4.98358">
        <ele>235</ele>
        <time>2015-04-26T11:33:35Z</time>
      </trkpt>
      <trkpt lat="45.78237" lon="4.98357">
        <ele>235</ele>
        <time>2015-04-26T11:33:36Z</time>
      </trkpt>
      <trkpt lat="45.78234" lon="4.98352">
        <ele>235</ele>
        <time>2015-04-26T11:33:38Z</time>
      </trkpt>
      <trkpt lat="45.78232" lon="4.98349">
        <ele>235</ele>
        <time>2015-04-26T11:33:40Z</time>
      </trkpt>
      <trkpt lat="45.78227" lon="4.98344">
        <ele>235</ele>
        <time>2015-04-26T11:33:42Z</time>
      </trkpt>
      <trkpt lat="45.78225" lon="4.98341">
        <ele>235</ele>
        <time>2015-04-26T11:33:44Z</time>
      </trkpt>
      <trkpt lat="45.7822" lon="4.98337">
        <ele>234</ele>
        <time>2015-04-26T11:33:46Z</time>
      </trkpt>
      <trkpt lat="45.78217" lon="4.98335">
        <ele>234</ele>
        <time>2015-04-26T11:33:48Z</time>
      </trkpt>
      <trkpt lat="45.78213" lon="4.9833">
        <ele>234</ele>
        <time>2015-04-26T11:33:50Z</time>
      </trkpt>
      <trkpt lat="45.78211" lon="4.98329">
        <ele>234</ele>
        <time>2015-04-26T11:33:51Z</time>
      </trkpt>
      <trkpt lat="45.78207" lon="4.98326">
        <ele>234</ele>
        <time>2015-04-26T11:33:53Z</time>
      </trkpt>
      <trkpt lat="45.78203" lon="4.98323">
        <ele>234</ele>
        <time>2015-04-26T11:33:55Z</time>
      </trkpt>
      <trkpt lat="45.78201" lon="4.98321">
        <ele>234</ele>
        <time>2015-04-26T11:33:56Z</time>
      </trkpt>
      <trkpt lat="45.78197" lon="4.98318">
        <ele>234</ele>
        <time>2015-04-26T11:33:58Z</time>
      </trkpt>
      <trkpt lat="45.78194" lon="4.98317">
        <ele>234</ele>
        <time>2015-04-26T11:33:59Z</time>
      </trkpt>
      <trkpt lat="45.7819" lon="4.98315">
        <ele>234</ele>
        <time>2015-04-26T11:34:01Z</time>
      </trkpt>
      <trkpt lat="45.78188" lon="4.98313">
        <ele>234</ele>
        <time>2015-04-26T11:34:02Z</time>
      </trkpt>
      <trkpt lat="45.78184" lon="4.9831">
        <ele>234</ele>
        <time>2015-04-26T11:34:04Z</time>
      </trkpt>
      <trkpt lat="45.78182" lon="4.98308">
        <ele>234</ele>
        <time>2015-04-26T11:34:05Z</time>
      </trkpt>
      <trkpt lat="45.78177" lon="4.98305">
        <ele>234</ele>
        <time>2015-04-26T11:34:07Z</time>
      </trkpt>
      <trkpt lat="45.78175" lon="4.98303">
        <ele>234</ele>
        <time>2015-04-26T11:34:08Z</time>
      </trkpt>
      <trkpt lat="45.78171" lon="4.983">
        <ele>234</ele>
        <time>2015-04-26T11:34:10Z</time>
      </trkpt>
      <trkpt lat="45.78168" lon="4.98298">
        <ele>234</ele>
        <time>2015-04-26T11:34:12Z</time>
      </trkpt>
      <trkpt lat="45.78165" lon="4.98292">
        <ele>233</ele>
        <time>2015-04-26T11:34:14Z</time>
      </trkpt>
      <trkpt lat="45.78163" lon="4.98289">
        <ele>234</ele>
        <time>2015-04-26T11:34:16Z</time>
      </trkpt>
      <trkpt lat="45.7816" lon="4.98283">
        <ele>234</ele>
        <time>2015-04-26T11:34:18Z</time>
      </trkpt>
      <trkpt lat="45.78159" lon="4.98279">
        <ele>234</ele>
        <time>2015-04-26T11:34:20Z</time>
      </trkpt>
      <trkpt lat="45.78158" lon="4.98274">
        <ele>233</ele>
        <time>2015-04-26T11:34:22Z</time>
      </trkpt>
      <trkpt lat="45.78157" lon="4.9827">
        <ele>234</ele>
        <time>2015-04-26T11:34:24Z</time>
      </trkpt>
      <trkpt lat="45.78156" lon="4.98266">
        <ele>234</ele>
        <time>2015-04-26T11:34:26Z</time>
      </trkpt>
      <trkpt lat="45.78154" lon="4.98261">
        <ele>234</ele>
        <time>2015-04-26T11:34:28Z</time>
      </trkpt>
      <trkpt lat="45.78153" lon="4.98257">
        <ele>234</ele>
        <time>2015-04-26T11:34:30Z</time>
      </trkpt>
      <trkpt lat="45.78151" lon="4.98253">
        <ele>234</ele>
        <time>2015-04-26T11:34:32Z</time>
      </trkpt>
      <trkpt lat="45.7815" lon="4.98248">
        <ele>234</ele>
        <time>2015-04-26T11:34:34Z</time>
      </trkpt>
      <trkpt lat="45.78149" lon="4.98243">
        <ele>234</ele>
        <time>2015-04-26T11:34:36Z</time>
      </trkpt>
      <trkpt lat="45.78147" lon="4.98239">
        <ele>234</ele>
        <time>2015-04-26T11:34:38Z</time>
      </trkpt>
      <trkpt lat="45.78144" lon="4.98233">
        <ele>234</ele>
        <time>2015-04-26T11:34:40Z</time>
      </trkpt>
      <trkpt lat="45.78143" lon="4.9823">
        <ele>234</ele>
        <time>2015-04-26T11:34:41Z</time>
      </trkpt>
      <trkpt lat="45.78141" lon="4.98224">
        <ele>234</ele>
        <time>2015-04-26T11:34:43Z</time>
      </trkpt>
      <trkpt lat="45.7814" lon="4.9822">
        <ele>234</ele>
        <time>2015-04-26T11:34:45Z</time>
      </trkpt>
      <trkpt lat="45.78139" lon="4.98213">
        <ele>234</ele>
        <time>2015-04-26T11:34:47Z</time>
      </trkpt>
      <trkpt lat="45.78138" lon="4.98209">
        <ele>234</ele>
        <time>2015-04-26T11:34:49Z</time>
      </trkpt>
      <trkpt lat="45.78136" lon="4.98203">
        <ele>234</ele>
        <time>2015-04-26T11:34:51Z</time>
      </trkpt>
      <trkpt lat="45.78135" lon="4.98199">
        <ele>234</ele>
        <time>2015-04-26T11:34:53Z</time>
      </trkpt>
      <trkpt lat="45.78133" lon="4.98193">
        <ele>234</ele>
        <time>2015-04-26T11:34:55Z</time>
      </trkpt>
      <trkpt lat="45.78132" lon="4.9819">
        <ele>234</ele>
        <time>2015-04-26T11:34:57Z</time>
      </trkpt>
      <trkpt lat="45.78132" lon="4.98184">
        <ele>234</ele>
        <time>2015-04-26T11:34:59Z</time>
      </trkpt>
      <trkpt lat="45.78132" lon="4.98179">
        <ele>233</ele>
        <time>2015-04-26T11:35:01Z</time>
      </trkpt>
      <trkpt lat="45.78132" lon="4.98174">
        <ele>234</ele>
        <time>2015-04-26T11:35:03Z</time>
      </trkpt>
      <trkpt lat="45.78132" lon="4.98169">
        <ele>234</ele>
        <time>2015-04-26T11:35:05Z</time>
      </trkpt>
      <trkpt lat="45.78132" lon="4.98164">
        <ele>234</ele>
        <time>2015-04-26T11:35:07Z</time>
      </trkpt>
      <trkpt lat="45.78132" lon="4.98159">
        <ele>235</ele>
        <time>2015-04-26T11:35:09Z</time>
      </trkpt>
      <trkpt lat="45.7813" lon="4.98154">
        <ele>235</ele>
        <time>2015-04-26T11:35:11Z</time>
      </trkpt>
      <trkpt lat="45.78129" lon="4.9815">
        <ele>234</ele>
        <time>2015-04-26T11:35:13Z</time>
      </trkpt>
      <trkpt lat="45.7813" lon="4.98145">
        <ele>235</ele>
        <time>2015-04-26T11:35:15Z</time>
      </trkpt>
      <trkpt lat="45.78129" lon="4.98141">
        <ele>234.5</ele>
        <time>2015-04-26T11:35:18Z</time>
      </trkpt>
      <trkpt lat="45.78128" lon="4.98136">
        <ele>234</ele>
        <time>2015-04-26T11:35:20Z</time>
      </trkpt>
      <trkpt lat="45.78127" lon="4.98132">
        <ele>234</ele>
        <time>2015-04-26T11:35:22Z</time>
      </trkpt>
      <trkpt lat="45.78126" lon="4.98126">
        <ele>234</ele>
        <time>2015-04-26T11:35:24Z</time>
      </trkpt>
      <trkpt lat="45.78124" lon="4.9812">
        <ele>234</ele>
        <time>2015-04-26T11:35:26Z</time>
      </trkpt>
      <trkpt lat="45.78122" lon="4.98116">
        <ele>234.5</ele>
        <time>2015-04-26T11:35:28Z</time>
      </trkpt>
      <trkpt lat="45.78119" lon="4.9811">
        <ele>234</ele>
        <time>2015-04-26T11:35:30Z</time>
      </trkpt>
      <trkpt lat="45.78117" lon="4.98107">
        <ele>234</ele>
        <time>2015-04-26T11:35:32Z</time>
      </trkpt>
      <trkpt lat="45.78114" lon="4.98104">
        <ele>234</ele>
        <time>2015-04-26T11:35:36Z</time>
      </trkpt>
      <trkpt lat="45.78111" lon="4.98106">
        <ele>234</ele>
        <time>2015-04-26T11:35:38Z</time>
      </trkpt>
      <trkpt lat="45.78107" lon="4.98107">
        <ele>234</ele>
        <time>2015-04-26T11:35:40Z</time>
      </trkpt>
      <trkpt lat="45.78103" lon="4.98109">
        <ele>233</ele>
        <time>2015-04-26T11:35:42Z</time>
      </trkpt>
      <trkpt lat="45.781" lon="4.98111">
        <ele>233</ele>
        <time>2015-04-26T11:35:43Z</time>
      </trkpt>
      <trkpt lat="45.78095" lon="4.98115">
        <ele>234</ele>
        <time>2015-04-26T11:35:45Z</time>
      </trkpt>
      <trkpt lat="45.78093" lon="4.98117">
        <ele>234</ele>
        <time>2015-04-26T11:35:46Z</time>
      </trkpt>
      <trkpt lat="45.78088" lon="4.98122">
        <ele>233</ele>
        <time>2015-04-26T11:35:48Z</time>
      </trkpt>
      <trkpt lat="45.78086" lon="4.98125">
        <ele>233</ele>
        <time>2015-04-26T11:35:49Z</time>
      </trkpt>
      <trkpt lat="45.78082" lon="4.98131">
        <ele>233</ele>
        <time>2015-04-26T11:35:51Z</time>
      </trkpt>
      <trkpt lat="45.7808" lon="4.98133">
        <ele>233</ele>
        <time>2015-04-26T11:35:52Z</time>
      </trkpt>
      <trkpt lat="45.78076" lon="4.98139">
        <ele>233</ele>
        <time>2015-04-26T11:35:54Z</time>
      </trkpt>
      <trkpt lat="45.78075" lon="4.98143">
        <ele>233</ele>
        <time>2015-04-26T11:35:56Z</time>
      </trkpt>
      <trkpt lat="45.78071" lon="4.98148">
        <ele>233</ele>
        <time>2015-04-26T11:35:58Z</time>
      </trkpt>
      <trkpt lat="45.78068" lon="4.98151">
        <ele>233</ele>
        <time>2015-04-26T11:36:00Z</time>
      </trkpt>
      <trkpt lat="45.78063" lon="4.98155">
        <ele>233</ele>
        <time>2015-04-26T11:36:02Z</time>
      </trkpt>
      <trkpt lat="45.78061" lon="4.98158">
        <ele>233</ele>
        <time>2015-04-26T11:36:04Z</time>
      </trkpt>
      <trkpt lat="45.78058" lon="4.98164">
        <ele>233</ele>
        <time>2015-04-26T11:36:06Z</time>
      </trkpt>
      <trkpt lat="45.78056" lon="4.98168">
        <ele>233</ele>
        <time>2015-04-26T11:36:08Z</time>
      </trkpt>
      <trkpt lat="45.78054" lon="4.98174">
        <ele>234</ele>
        <time>2015-04-26T11:36:10Z</time>
      </trkpt>
      <trkpt lat="45.78053" lon="4.98178">
        <ele>234</ele>
        <time>2015-04-26T11:36:12Z</time>
      </trkpt>
      <trkpt lat="45.78051" lon="4.98183">
        <ele>234</ele>
        <time>2015-04-26T11:36:14Z</time>
      </trkpt>
      <trkpt lat="45.78049" lon="4.98187">
        <ele>234.5</ele>
        <time>2015-04-26T11:36:17Z</time>
      </trkpt>
      <trkpt lat="45.78049" lon="4.98192">
        <ele>235</ele>
        <time>2015-04-26T11:36:19Z</time>
      </trkpt>
      <trkpt lat="45.7805" lon="4.98196">
        <ele>235</ele>
        <time>2015-04-26T11:36:21Z</time>
      </trkpt>
      <trkpt lat="45.78051" lon="4.982">
        <ele>235</ele>
        <time>2015-04-26T11:36:23Z</time>
      </trkpt>
      <trkpt lat="45.78054" lon="4.98204">
        <ele>235</ele>
        <time>2015-04-26T11:36:25Z</time>
      </trkpt>
      <trkpt lat="45.78057" lon="4.98207">
        <ele>236</ele>
        <time>2015-04-26T11:36:27Z</time>
      </trkpt>
      <trkpt lat="45.78059" lon="4.98209">
        <ele>235</ele>
        <time>2015-04-26T11:36:29Z</time>
      </trkpt>
      <trkpt lat="45.78062" lon="4.98212">
        <ele>236</ele>
        <time>2015-04-26T11:36:31Z</time>
      </trkpt>
      <trkpt lat="45.78065" lon="4.98215">
        <ele>236</ele>
        <time>2015-04-26T11:36:34Z</time>
      </trkpt>
      <trkpt lat="45.78068" lon="4.98218">
        <ele>235</ele>
        <time>2015-04-26T11:36:36Z</time>
      </trkpt>
      <trkpt lat="45.78071" lon="4.98221">
        <ele>235</ele>
        <time>2015-04-26T11:36:39Z</time>
      </trkpt>
      <trkpt lat="45.78074" lon="4.98225">
        <ele>235</ele>
        <time>2015-04-26T11:36:41Z</time>
      </trkpt>
      <trkpt lat="45.78078" lon="4.98229">
        <ele>234</ele>
        <time>2015-04-26T11:36:43Z</time>
      </trkpt>
      <trkpt lat="45.78079" lon="4.98232">
        <ele>234</ele>
        <time>2015-04-26T11:36:44Z</time>
      </trkpt>
      <trkpt lat="45.78083" lon="4.98237">
        <ele>235</ele>
        <time>2015-04-26T11:36:46Z</time>
      </trkpt>
      <trkpt lat="45.78085" lon="4.98239">
        <ele>235</ele>
        <time>2015-04-26T11:36:47Z</time>
      </trkpt>
      <trkpt lat="45.78088" lon="4.98244">
        <ele>235</ele>
        <time>2015-04-26T11:36:49Z</time>
      </trkpt>
      <trkpt lat="45.7809" lon="4.98246">
        <ele>234</ele>
        <time>2015-04-26T11:36:50Z</time>
      </trkpt>
      <trkpt lat="45.78094" lon="4.98249">
        <ele>235</ele>
        <time>2015-04-26T11:36:52Z</time>
      </trkpt>
      <trkpt lat="45.78097" lon="4.98251">
        <ele>235</ele>
        <time>2015-04-26T11:36:54Z</time>
      </trkpt>
      <trkpt lat="45.78101" lon="4.98255">
        <ele>235</ele>
        <time>2015-04-26T11:36:56Z</time>
      </trkpt>
      <trkpt lat="45.78103" lon="4.98257">
        <ele>234.5</ele>
        <time>2015-04-26T11:36:58Z</time>
      </trkpt>
      <trkpt lat="45.78107" lon="4.9826">
        <ele>235</ele>
        <time>2015-04-26T11:37:00Z</time>
      </trkpt>
      <trkpt lat="45.7811" lon="4.98263">
        <ele>235</ele>
        <time>2015-04-26T11:37:02Z</time>
      </trkpt>
      <trkpt lat="45.78114" lon="4.98269">
        <ele>235</ele>
        <time>2015-04-26T11:37:04Z</time>
      </trkpt>
      <trkpt lat="45.78115" lon="4.98272">
        <ele>234</ele>
        <time>2015-04-26T11:37:05Z</time>
      </trkpt>
      <trkpt lat="45.78119" lon="4.98278">
        <ele>234</ele>
        <time>2015-04-26T11:37:07Z</time>
      </trkpt>
      <trkpt lat="45.78121" lon="4.9828">
        <ele>234</ele>
        <time>2015-04-26T11:37:08Z</time>
      </trkpt>
      <trkpt lat="45.78125" lon="4.98285">
        <ele>234</ele>
        <time>2015-04-26T11:37:10Z</time>
      </trkpt>
      <trkpt lat="45.78128" lon="4.98288">
        <ele>233</ele>
        <time>2015-04-26T11:37:11Z</time>
      </trkpt>
      <trkpt lat="45.78133" lon="4.98294">
        <ele>234</ele>
        <time>2015-04-26T11:37:13Z</time>
      </trkpt>
      <trkpt lat="45.78136" lon="4.98297">
        <ele>234</ele>
        <time>2015-04-26T11:37:14Z</time>
      </trkpt>
      <trkpt lat="45.78142" lon="4.98302">
        <ele>233</ele>
        <time>2015-04-26T11:37:16Z</time>
      </trkpt>
      <trkpt lat="45.78145" lon="4.98304">
        <ele>233</ele>
        <time>2015-04-26T11:37:17Z</time>
      </trkpt>
      <trkpt lat="45.7815" lon="4.9831">
        <ele>233</ele>
        <time>2015-04-26T11:37:19Z</time>
      </trkpt>
      <trkpt lat="45.78153" lon="4.98313">
        <ele>233</ele>
        <time>2015-04-26T11:37:20Z</time>
      </trkpt>
      <trkpt lat="45.78158" lon="4.98317">
        <ele>233</ele>
        <time>2015-04-26T11:37:22Z</time>
      </trkpt>
      <trkpt lat="45.78161" lon="4.98319">
        <ele>233</ele>
        <time>2015-04-26T11:37:23Z</time>
      </trkpt>
      <trkpt lat="45.78167" lon="4.98322">
        <ele>234</ele>
        <time>2015-04-26T11:37:25Z</time>
      </trkpt>
      <trkpt lat="45.7817" lon="4.98323">
        <ele>234</ele>
        <time>2015-04-26T11:37:26Z</time>
      </trkpt>
      <trkpt lat="45.78175" lon="4.98326">
        <ele>234</ele>
        <time>2015-04-26T11:37:28Z</time>
      </trkpt>
      <trkpt lat="45.78177" lon="4.9833">
        <ele>234</ele>
        <time>2015-04-26T11:37:30Z</time>
      </trkpt>
      <trkpt lat="45.78179" lon="4.98335">
        <ele>234</ele>
        <time>2015-04-26T11:37:32Z</time>
      </trkpt>
      <trkpt lat="45.78183" lon="4.98338">
        <ele>234</ele>
        <time>2015-04-26T11:37:34Z</time>
      </trkpt>
      <trkpt lat="45.78187" lon="4.98341">
        <ele>234</ele>
        <time>2015-04-26T11:37:36Z</time>
      </trkpt>
      <trkpt lat="45.78189" lon="4.98342">
        <ele>234</ele>
        <time>2015-04-26T11:37:37Z</time>
      </trkpt>
      <trkpt lat="45.78195" lon="4.98345">
        <ele>234</ele>
        <time>2015-04-26T11:37:39Z</time>
      </trkpt>
      <trkpt lat="45.78197" lon="4.98346">
        <ele>234</ele>
        <time>2015-04-26T11:37:40Z</time>
      </trkpt>
      <trkpt lat="45.78202" lon="4.98351">
        <ele>234</ele>
        <time>2015-04-26T11:37:42Z</time>
      </trkpt>
      <trkpt lat="45.78205" lon="4.98353">
        <ele>234</ele>
        <time>2015-04-26T11:37:43Z</time>
      </trkpt>
      <trkpt lat="45.78211" lon="4.98359">
        <ele>233</ele>
        <time>2015-04-26T11:37:45Z</time>
      </trkpt>
      <trkpt lat="45.78213" lon="4.98362">
        <ele>234</ele>
        <time>2015-04-26T11:37:46Z</time>
      </trkpt>
      <trkpt lat="45.78219" lon="4.98368">
        <ele>234</ele>
        <time>2015-04-26T11:37:48Z</time>
      </trkpt>
      <trkpt lat="45.78222" lon="4.98371">
        <ele>234</ele>
        <time>2015-04-26T11:37:49Z</time>
      </trkpt>
      <trkpt lat="45.78227" lon="4.98376">
        <ele>233</ele>
        <time>2015-04-26T11:37:51Z</time>
      </trkpt>
      <trkpt lat="45.7823" lon="4.98379">
        <ele>233</ele>
        <time>2015-04-26T11:37:52Z</time>
      </trkpt>
      <trkpt lat="45.78236" lon="4.98385">
        <ele>233</ele>
        <time>2015-04-26T11:37:54Z</time>
      </trkpt>
      <trkpt lat="45.78239" lon="4.98388">
        <ele>233</ele>
        <time>2015-04-26T11:37:55Z</time>
      </trkpt>
      <trkpt lat="45.78245" lon="4.98393">
        <ele>233</ele>
        <time>2015-04-26T11:37:57Z</time>
      </trkpt>
      <trkpt lat="45.78248" lon="4.98395">
        <ele>233</ele>
        <time>2015-04-26T11:37:58Z</time>
      </trkpt>
      <trkpt lat="45.78254" lon="4.984">
        <ele>233</ele>
        <time>2015-04-26T11:38:00Z</time>
      </trkpt>
      <trkpt lat="45.78258" lon="4.98403">
        <ele>233</ele>
        <time>2015-04-26T11:38:01Z</time>
      </trkpt>
      <trkpt lat="45.78264" lon="4.98407">
        <ele>233</ele>
        <time>2015-04-26T11:38:03Z</time>
      </trkpt>
      <trkpt lat="45.78267" lon="4.9841">
        <ele>233</ele>
        <time>2015-04-26T11:38:04Z</time>
      </trkpt>
      <trkpt lat="45.78274" lon="4.98415">
        <ele>233</ele>
        <time>2015-04-26T11:38:06Z</time>
      </trkpt>
      <trkpt lat="45.78276" lon="4.98418">
        <ele>232</ele>
        <time>2015-04-26T11:38:07Z</time>
      </trkpt>
      <trkpt lat="45.78282" lon="4.98424">
        <ele>232</ele>
        <time>2015-04-26T11:38:09Z</time>
      </trkpt>
      <trkpt lat="45.78284" lon="4.98428">
        <ele>233</ele>
        <time>2015-04-26T11:38:10Z</time>
      </trkpt>
      <trkpt lat="45.78289" lon="4.98434">
        <ele>232</ele>
        <time>2015-04-26T11:38:12Z</time>
      </trkpt>
      <trkpt lat="45.78292" lon="4.98437">
        <ele>232</ele>
        <time>2015-04-26T11:38:13Z</time>
      </trkpt>
      <trkpt lat="45.78296" lon="4.98444">
        <ele>232</ele>
        <time>2015-04-26T11:38:15Z</time>
      </trkpt>
      <trkpt lat="45.78299" lon="4.98447">
        <ele>232</ele>
        <time>2015-04-26T11:38:16Z</time>
      </trkpt>
      <trkpt lat="45.78304" lon="4.98453">
        <ele>232</ele>
        <time>2015-04-26T11:38:18Z</time>
      </trkpt>
      <trkpt lat="45.78307" lon="4.98455">
        <ele>232</ele>
        <time>2015-04-26T11:38:19Z</time>
      </trkpt>
      <trkpt lat="45.78312" lon="4.9846">
        <ele>232</ele>
        <time>2015-04-26T11:38:21Z</time>
      </trkpt>
      <trkpt lat="45.78315" lon="4.98463">
        <ele>232</ele>
        <time>2015-04-26T11:38:22Z</time>
      </trkpt>
      <trkpt lat="45.7832" lon="4.98468">
        <ele>232</ele>
        <time>2015-04-26T11:38:24Z</time>
      </trkpt>
      <trkpt lat="45.78322" lon="4.9847">
        <ele>232</ele>
        <time>2015-04-26T11:38:25Z</time>
      </trkpt>
      <trkpt lat="45.78326" lon="4.98476">
        <ele>232</ele>
        <time>2015-04-26T11:38:27Z</time>
      </trkpt>
      <trkpt lat="45.78328" lon="4.98479">
        <ele>232</ele>
        <time>2015-04-26T11:38:28Z</time>
      </trkpt>
      <trkpt lat="45.78333" lon="4.98484">
        <ele>232</ele>
        <time>2015-04-26T11:38:30Z</time>
      </trkpt>
      <trkpt lat="45.78335" lon="4.98487">
        <ele>232</ele>
        <time>2015-04-26T11:38:31Z</time>
      </trkpt>
      <trkpt lat="45.7834" lon="4.98493">
        <ele>232</ele>
        <time>2015-04-26T11:38:33Z</time>
      </trkpt>
      <trkpt lat="45.78342" lon="4.98495">
        <ele>232</ele>
        <time>2015-04-26T11:38:34Z</time>
      </trkpt>
      <trkpt lat="45.78346" lon="4.98501">
        <ele>232</ele>
        <time>2015-04-26T11:38:36Z</time>
      </trkpt>
      <trkpt lat="45.78348" lon="4.98504">
        <ele>232</ele>
        <time>2015-04-26T11:38:37Z</time>
      </trkpt>
      <trkpt lat="45.78352" lon="4.9851">
        <ele>232</ele>
        <time>2015-04-26T11:38:39Z</time>
      </trkpt>
      <trkpt lat="45.78354" lon="4.98514">
        <ele>232</ele>
        <time>2015-04-26T11:38:40Z</time>
      </trkpt>
      <trkpt lat="45.78359" lon="4.98522">
        <ele>232</ele>
        <time>2015-04-26T11:38:42Z</time>
      </trkpt>
      <trkpt lat="45.78361" lon="4.98525">
        <ele>232</ele>
        <time>2015-04-26T11:38:43Z</time>
      </trkpt>
      <trkpt lat="45.78365" lon="4.98532">
        <ele>232</ele>
        <time>2015-04-26T11:38:45Z</time>
      </trkpt>
      <trkpt lat="45.78367" lon="4.98535">
        <ele>231</ele>
        <time>2015-04-26T11:38:46Z</time>
      </trkpt>
      <trkpt lat="45.78371" lon="4.98541">
        <ele>231</ele>
        <time>2015-04-26T11:38:48Z</time>
      </trkpt>
      <trkpt lat="45.78373" lon="4.98544">
        <ele>231</ele>
        <time>2015-04-26T11:38:49Z</time>
      </trkpt>
      <trkpt lat="45.78378" lon="4.98549">
        <ele>231</ele>
        <time>2015-04-26T11:38:51Z</time>
      </trkpt>
      <trkpt lat="45.7838" lon="4.98552">
        <ele>231</ele>
        <time>2015-04-26T11:38:52Z</time>
      </trkpt>
      <trkpt lat="45.78385" lon="4.98557">
        <ele>231</ele>
        <time>2015-04-26T11:38:54Z</time>
      </trkpt>
      <trkpt lat="45.78388" lon="4.98561">
        <ele>231</ele>
        <time>2015-04-26T11:38:55Z</time>
      </trkpt>
      <trkpt lat="45.78394" lon="4.98568">
        <ele>231</ele>
        <time>2015-04-26T11:38:57Z</time>
      </trkpt>
      <trkpt lat="45.78399" lon="4.98571">
        <ele>231</ele>
        <time>2015-04-26T11:38:58Z</time>
      </trkpt>
      <trkpt lat="45.78402" lon="4.98575">
        <ele>231</ele>
        <time>2015-04-26T11:38:59Z</time>
      </trkpt>
      <trkpt lat="45.78409" lon="4.98583">
        <ele>231</ele>
        <time>2015-04-26T11:39:01Z</time>
      </trkpt>
      <trkpt lat="45.78412" lon="4.98586">
        <ele>231</ele>
        <time>2015-04-26T11:39:02Z</time>
      </trkpt>
      <trkpt lat="45.78419" lon="4.98593">
        <ele>231</ele>
        <time>2015-04-26T11:39:04Z</time>
      </trkpt>
      <trkpt lat="45.78422" lon="4.98596">
        <ele>231</ele>
        <time>2015-04-26T11:39:05Z</time>
      </trkpt>
      <trkpt lat="45.78428" lon="4.98604">
        <ele>231</ele>
        <time>2015-04-26T11:39:07Z</time>
      </trkpt>
      <trkpt lat="45.7843" lon="4.98607">
        <ele>231</ele>
        <time>2015-04-26T11:39:08Z</time>
      </trkpt>
      <trkpt lat="45.78434" lon="4.98613">
        <ele>231</ele>
        <time>2015-04-26T11:39:10Z</time>
      </trkpt>
      <trkpt lat="45.78435" lon="4.98616">
        <ele>231</ele>
        <time>2015-04-26T11:39:11Z</time>
      </trkpt>
      <trkpt lat="45.78439" lon="4.98621">
        <ele>231</ele>
        <time>2015-04-26T11:39:13Z</time>
      </trkpt>
      <trkpt lat="45.78442" lon="4.98624">
        <ele>231</ele>
        <time>2015-04-26T11:39:14Z</time>
      </trkpt>
      <trkpt lat="45.78447" lon="4.98629">
        <ele>231</ele>
        <time>2015-04-26T11:39:16Z</time>
      </trkpt>
      <trkpt lat="45.78449" lon="4.98632">
        <ele>231</ele>
        <time>2015-04-26T11:39:17Z</time>
      </trkpt>
      <trkpt lat="45.78452" lon="4.98637">
        <ele>232</ele>
        <time>2015-04-26T11:39:19Z</time>
      </trkpt>
      <trkpt lat="45.78454" lon="4.98639">
        <ele>232</ele>
        <time>2015-04-26T11:39:20Z</time>
      </trkpt>
      <trkpt lat="45.78458" lon="4.98644">
        <ele>232</ele>
        <time>2015-04-26T11:39:22Z</time>
      </trkpt>
      <trkpt lat="45.7846" lon="4.98647">
        <ele>231</ele>
        <time>2015-04-26T11:39:23Z</time>
      </trkpt>
      <trkpt lat="45.78465" lon="4.98653">
        <ele>232</ele>
        <time>2015-04-26T11:39:25Z</time>
      </trkpt>
      <trkpt lat="45.78468" lon="4.98656">
        <ele>232</ele>
        <time>2015-04-26T11:39:26Z</time>
      </trkpt>
      <trkpt lat="45.78473" lon="4.98662">
        <ele>232</ele>
        <time>2015-04-26T11:39:28Z</time>
      </trkpt>
      <trkpt lat="45.78475" lon="4.98664">
        <ele>232</ele>
        <time>2015-04-26T11:39:29Z</time>
      </trkpt>
      <trkpt lat="45.7848" lon="4.9867">
        <ele>232</ele>
        <time>2015-04-26T11:39:31Z</time>
      </trkpt>
      <trkpt lat="45.78482" lon="4.98673">
        <ele>232</ele>
        <time>2015-04-26T11:39:32Z</time>
      </trkpt>
      <trkpt lat="45.78487" lon="4.9868">
        <ele>232</ele>
        <time>2015-04-26T11:39:34Z</time>
      </trkpt>
      <trkpt lat="45.7849" lon="4.98683">
        <ele>232</ele>
        <time>2015-04-26T11:39:35Z</time>
      </trkpt>
      <trkpt lat="45.78494" lon="4.98689">
        <ele>232</ele>
        <time>2015-04-26T11:39:37Z</time>
      </trkpt>
      <trkpt lat="45.78497" lon="4.98692">
        <ele>232</ele>
        <time>2015-04-26T11:39:38Z</time>
      </trkpt>
      <trkpt lat="45.78501" lon="4.98699">
        <ele>232</ele>
        <time>2015-04-26T11:39:40Z</time>
      </trkpt>
      <trkpt lat="45.78504" lon="4.98702">
        <ele>232</ele>
        <time>2015-04-26T11:39:41Z</time>
      </trkpt>
      <trkpt lat="45.78509" lon="4.98709">
        <ele>232</ele>
        <time>2015-04-26T11:39:43Z</time>
      </trkpt>
      <trkpt lat="45.78511" lon="4.98712">
        <ele>232</ele>
        <time>2015-04-26T11:39:44Z</time>
      </trkpt>
      <trkpt lat="45.78516" lon="4.98718">
        <ele>232</ele>
        <time>2015-04-26T11:39:46Z</time>
      </trkpt>
      <trkpt lat="45.78519" lon="4.98721">
        <ele>232</ele>
        <time>2015-04-26T11:39:47Z</time>
      </trkpt>
      <trkpt lat="45.78525" lon="4.98728">
        <ele>232</ele>
        <time>2015-04-26T11:39:49Z</time>
      </trkpt>
      <trkpt lat="45.78528" lon="4.9873">
        <ele>232</ele>
        <time>2015-04-26T11:39:50Z</time>
      </trkpt>
      <trkpt lat="45.78534" lon="4.98734">
        <ele>232</ele>
        <time>2015-04-26T11:39:52Z</time>
      </trkpt>
      <trkpt lat="45.78536" lon="4.98735">
        <ele>232</ele>
        <time>2015-04-26T11:39:53Z</time>
      </trkpt>
      <trkpt lat="45.78541" lon="4.98739">
        <ele>232</ele>
        <time>2015-04-26T11:39:55Z</time>
      </trkpt>
      <trkpt lat="45.78543" lon="4.98741">
        <ele>232</ele>
        <time>2015-04-26T11:39:56Z</time>
      </trkpt>
      <trkpt lat="45.78548" lon="4.98744">
        <ele>232</ele>
        <time>2015-04-26T11:39:58Z</time>
      </trkpt>
      <trkpt lat="45.78551" lon="4.98746">
        <ele>232</ele>
        <time>2015-04-26T11:39:59Z</time>
      </trkpt>
      <trkpt lat="45.78556" lon="4.98749">
        <ele>232</ele>
        <time>2015-04-26T11:40:01Z</time>
      </trkpt>
      <trkpt lat="45.78558" lon="4.98751">
        <ele>232</ele>
        <time>2015-04-26T11:40:02Z</time>
      </trkpt>
      <trkpt lat="45.78563" lon="4.98756">
        <ele>233</ele>
        <time>2015-04-26T11:40:04Z</time>
      </trkpt>
      <trkpt lat="45.78566" lon="4.98757">
        <ele>232</ele>
        <time>2015-04-26T11:40:05Z</time>
      </trkpt>
      <trkpt lat="45.78572" lon="4.9876">
        <ele>232</ele>
        <time>2015-04-26T11:40:07Z</time>
      </trkpt>
      <trkpt lat="45.78575" lon="4.98761">
        <ele>232</ele>
        <time>2015-04-26T11:40:08Z</time>
      </trkpt>
      <trkpt lat="45.78581" lon="4.98763">
        <ele>232</ele>
        <time>2015-04-26T11:40:10Z</time>
      </trkpt>
      <trkpt lat="45.78583" lon="4.98764">
        <ele>232</ele>
        <time>2015-04-26T11:40:11Z</time>
      </trkpt>
      <trkpt lat="45.78588" lon="4.98768">
        <ele>232</ele>
        <time>2015-04-26T11:40:13Z</time>
      </trkpt>
      <trkpt lat="45.78591" lon="4.98769">
        <ele>231</ele>
        <time>2015-04-26T11:40:14Z</time>
      </trkpt>
      <trkpt lat="45.78596" lon="4.98772">
        <ele>231</ele>
        <time>2015-04-26T11:40:16Z</time>
      </trkpt>
      <trkpt lat="45.78599" lon="4.98774">
        <ele>231</ele>
        <time>2015-04-26T11:40:17Z</time>
      </trkpt>
      <trkpt lat="45.78605" lon="4.98777">
        <ele>231</ele>
        <time>2015-04-26T11:40:19Z</time>
      </trkpt>
      <trkpt lat="45.78608" lon="4.98779">
        <ele>231</ele>
        <time>2015-04-26T11:40:20Z</time>
      </trkpt>
      <trkpt lat="45.78614" lon="4.98782">
        <ele>231</ele>
        <time>2015-04-26T11:40:22Z</time>
      </trkpt>
      <trkpt lat="45.78617" lon="4.98783">
        <ele>231</ele>
        <time>2015-04-26T11:40:23Z</time>
      </trkpt>
      <trkpt lat="45.78622" lon="4.98786">
        <ele>231</ele>
        <time>2015-04-26T11:40:25Z</time>
      </trkpt>
      <trkpt lat="45.78625" lon="4.98787">
        <ele>231</ele>
        <time>2015-04-26T11:40:26Z</time>
      </trkpt>
      <trkpt lat="45.7863" lon="4.98791">
        <ele>231</ele>
        <time>2015-04-26T11:40:28Z</time>
      </trkpt>
      <trkpt lat="45.78633" lon="4.98793">
        <ele>231</ele>
        <time>2015-04-26T11:40:29Z</time>
      </trkpt>
      <trkpt lat="45.78639" lon="4.98796">
        <ele>231</ele>
        <time>2015-04-26T11:40:31Z</time>
      </trkpt>
      <trkpt lat="45.78641" lon="4.98798">
        <ele>231</ele>
        <time>2015-04-26T11:40:32Z</time>
      </trkpt>
      <trkpt lat="45.78647" lon="4.98802">
        <ele>231</ele>
        <time>2015-04-26T11:40:34Z</time>
      </trkpt>
      <trkpt lat="45.78649" lon="4.98805">
        <ele>231</ele>
        <time>2015-04-26T11:40:35Z</time>
      </trkpt>
      <trkpt lat="45.78654" lon="4.9881">
        <ele>231</ele>
        <time>2015-04-26T11:40:37Z</time>
      </trkpt>
      <trkpt lat="45.78656" lon="4.98812">
        <ele>231</ele>
        <time>2015-04-26T11:40:38Z</time>
      </trkpt>
      <trkpt lat="45.78661" lon="4.98816">
        <ele>231</ele>
        <time>2015-04-26T11:40:40Z</time>
      </trkpt>
      <trkpt lat="45.78664" lon="4.98818">
        <ele>231</ele>
        <time>2015-04-26T11:40:41Z</time>
      </trkpt>
      <trkpt lat="45.78669" lon="4.98821">
        <ele>231</ele>
        <time>2015-04-26T11:40:43Z</time>
      </trkpt>
      <trkpt lat="45.78672" lon="4.98822">
        <ele>231</ele>
        <time>2015-04-26T11:40:44Z</time>
      </trkpt>
      <trkpt lat="45.78678" lon="4.98825">
        <ele>230</ele>
        <time>2015-04-26T11:40:46Z</time>
      </trkpt>
      <trkpt lat="45.78681" lon="4.98827">
        <ele>230</ele>
        <time>2015-04-26T11:40:47Z</time>
      </trkpt>
      <trkpt lat="45.78687" lon="4.98831">
        <ele>230</ele>
        <time>2015-04-26T11:40:49Z</time>
      </trkpt>
      <trkpt lat="45.7869" lon="4.98833">
        <ele>229</ele>
        <time>2015-04-26T11:40:50Z</time>
      </trkpt>
      <trkpt lat="45.78695" lon="4.98837">
        <ele>230</ele>
        <time>2015-04-26T11:40:52Z</time>
      </trkpt>
      <trkpt lat="45.78698" lon="4.98839">
        <ele>230</ele>
        <time>2015-04-26T11:40:53Z</time>
      </trkpt>
      <trkpt lat="45.78703" lon="4.98844">
        <ele>231</ele>
        <time>2015-04-26T11:40:55Z</time>
      </trkpt>
      <trkpt lat="45.78705" lon="4.98846">
        <ele>231</ele>
        <time>2015-04-26T11:40:56Z</time>
      </trkpt>
      <trkpt lat="45.7871" lon="4.98851">
        <ele>231</ele>
        <time>2015-04-26T11:40:58Z</time>
      </trkpt>
      <trkpt lat="45.78713" lon="4.98853">
        <ele>232</ele>
        <time>2015-04-26T11:40:59Z</time>
      </trkpt>
      <trkpt lat="45.78719" lon="4.98854">
        <ele>231</ele>
        <time>2015-04-26T11:41:01Z</time>
      </trkpt>
      <trkpt lat="45.78721" lon="4.98853">
        <ele>231</ele>
        <time>2015-04-26T11:41:02Z</time>
      </trkpt>
      <trkpt lat="45.78727" lon="4.98849">
        <ele>232</ele>
        <time>2015-04-26T11:41:04Z</time>
      </trkpt>
      <trkpt lat="45.78729" lon="4.98847">
        <ele>232</ele>
        <time>2015-04-26T11:41:05Z</time>
      </trkpt>
      <trkpt lat="45.78735" lon="4.98845">
        <ele>232</ele>
        <time>2015-04-26T11:41:07Z</time>
      </trkpt>
      <trkpt lat="45.78738" lon="4.98844">
        <ele>232</ele>
        <time>2015-04-26T11:41:08Z</time>
      </trkpt>
      <trkpt lat="45.78743" lon="4.9884">
        <ele>233</ele>
        <time>2015-04-26T11:41:10Z</time>
      </trkpt>
      <trkpt lat="45.78746" lon="4.98837">
        <ele>233</ele>
        <time>2015-04-26T11:41:11Z</time>
      </trkpt>
      <trkpt lat="45.7875" lon="4.98832">
        <ele>233</ele>
        <time>2015-04-26T11:41:13Z</time>
      </trkpt>
      <trkpt lat="45.78752" lon="4.98829">
        <ele>233</ele>
        <time>2015-04-26T11:41:14Z</time>
      </trkpt>
      <trkpt lat="45.78756" lon="4.98823">
        <ele>233</ele>
        <time>2015-04-26T11:41:16Z</time>
      </trkpt>
      <trkpt lat="45.78758" lon="4.98821">
        <ele>234</ele>
        <time>2015-04-26T11:41:17Z</time>
      </trkpt>
      <trkpt lat="45.78763" lon="4.98815">
        <ele>234</ele>
        <time>2015-04-26T11:41:19Z</time>
      </trkpt>
      <trkpt lat="45.78765" lon="4.98813">
        <ele>234</ele>
        <time>2015-04-26T11:41:20Z</time>
      </trkpt>
      <trkpt lat="45.7877" lon="4.98808">
        <ele>234</ele>
        <time>2015-04-26T11:41:22Z</time>
      </trkpt>
      <trkpt lat="45.78772" lon="4.98806">
        <ele>234</ele>
        <time>2015-04-26T11:41:23Z</time>
      </trkpt>
      <trkpt lat="45.78777" lon="4.98801">
        <ele>234</ele>
        <time>2015-04-26T11:41:25Z</time>
      </trkpt>
      <trkpt lat="45.7878" lon="4.98798">
        <ele>234</ele>
        <time>2015-04-26T11:41:26Z</time>
      </trkpt>
      <trkpt lat="45.78785" lon="4.98793">
        <ele>234</ele>
        <time>2015-04-26T11:41:28Z</time>
      </trkpt>
      <trkpt lat="45.78788" lon="4.98789">
        <ele>234</ele>
        <time>2015-04-26T11:41:29Z</time>
      </trkpt>
      <trkpt lat="45.78792" lon="4.98783">
        <ele>234</ele>
        <time>2015-04-26T11:41:31Z</time>
      </trkpt>
      <trkpt lat="45.78795" lon="4.9878">
        <ele>235</ele>
        <time>2015-04-26T11:41:32Z</time>
      </trkpt>
      <trkpt lat="45.788" lon="4.98774">
        <ele>234</ele>
        <time>2015-04-26T11:41:34Z</time>
      </trkpt>
      <trkpt lat="45.78802" lon="4.98771">
        <ele>234</ele>
        <time>2015-04-26T11:41:35Z</time>
      </trkpt>
      <trkpt lat="45.78806" lon="4.98765">
        <ele>234</ele>
        <time>2015-04-26T11:41:37Z</time>
      </trkpt>
      <trkpt lat="45.78808" lon="4.98762">
        <ele>234</ele>
        <time>2015-04-26T11:41:38Z</time>
      </trkpt>
      <trkpt lat="45.78813" lon="4.98756">
        <ele>234</ele>
        <time>2015-04-26T11:41:40Z</time>
      </trkpt>
      <trkpt lat="45.78815" lon="4.98753">
        <ele>234</ele>
        <time>2015-04-26T11:41:41Z</time>
      </trkpt>
      <trkpt lat="45.7882" lon="4.98747">
        <ele>234</ele>
        <time>2015-04-26T11:41:43Z</time>
      </trkpt>
      <trkpt lat="45.78823" lon="4.98743">
        <ele>234</ele>
        <time>2015-04-26T11:41:44Z</time>
      </trkpt>
      <trkpt lat="45.78827" lon="4.98737">
        <ele>234</ele>
        <time>2015-04-26T11:41:46Z</time>
      </trkpt>
      <trkpt lat="45.78829" lon="4.98734">
        <ele>234</ele>
        <time>2015-04-26T11:41:47Z</time>
      </trkpt>
      <trkpt lat="45.78834" lon="4.98727">
        <ele>234</ele>
        <time>2015-04-26T11:41:49Z</time>
      </trkpt>
      <trkpt lat="45.78836" lon="4.98724">
        <ele>234</ele>
        <time>2015-04-26T11:41:50Z</time>
      </trkpt>
      <trkpt lat="45.78841" lon="4.98718">
        <ele>234</ele>
        <time>2015-04-26T11:41:52Z</time>
      </trkpt>
      <trkpt lat="45.78843" lon="4.98714">
        <ele>234</ele>
        <time>2015-04-26T11:41:53Z</time>
      </trkpt>
      <trkpt lat="45.78848" lon="4.98708">
        <ele>234</ele>
        <time>2015-04-26T11:41:55Z</time>
      </trkpt>
      <trkpt lat="45.7885" lon="4.98704">
        <ele>234</ele>
        <time>2015-04-26T11:41:56Z</time>
      </trkpt>
      <trkpt lat="45.78855" lon="4.98698">
        <ele>234</ele>
        <time>2015-04-26T11:41:58Z</time>
      </trkpt>
      <trkpt lat="45.78858" lon="4.98695">
        <ele>234</ele>
        <time>2015-04-26T11:41:59Z</time>
      </trkpt>
      <trkpt lat="45.78862" lon="4.98689">
        <ele>234</ele>
        <time>2015-04-26T11:42:01Z</time>
      </trkpt>
      <trkpt lat="45.78865" lon="4.98687">
        <ele>234</ele>
        <time>2015-04-26T11:42:02Z</time>
      </trkpt>
      <trkpt lat="45.78869" lon="4.9868">
        <ele>233</ele>
        <time>2015-04-26T11:42:04Z</time>
      </trkpt>
      <trkpt lat="45.78872" lon="4.98677">
        <ele>233</ele>
        <time>2015-04-26T11:42:05Z</time>
      </trkpt>
      <trkpt lat="45.78877" lon="4.98672">
        <ele>233</ele>
        <time>2015-04-26T11:42:07Z</time>
      </trkpt>
      <trkpt lat="45.78879" lon="4.98669">
        <ele>234</ele>
        <time>2015-04-26T11:42:08Z</time>
      </trkpt>
      <trkpt lat="45.78884" lon="4.98663">
        <ele>234</ele>
        <time>2015-04-26T11:42:10Z</time>
      </trkpt>
      <trkpt lat="45.78886" lon="4.9866">
        <ele>233</ele>
        <time>2015-04-26T11:42:11Z</time>
      </trkpt>
      <trkpt lat="45.78891" lon="4.98654">
        <ele>233</ele>
        <time>2015-04-26T11:42:13Z</time>
      </trkpt>
      <trkpt lat="45.78893" lon="4.98651">
        <ele>233</ele>
        <time>2015-04-26T11:42:14Z</time>
      </trkpt>
      <trkpt lat="45.78898" lon="4.98646">
        <ele>233</ele>
        <time>2015-04-26T11:42:16Z</time>
      </trkpt>
      <trkpt lat="45.78901" lon="4.98643">
        <ele>233</ele>
        <time>2015-04-26T11:42:17Z</time>
      </trkpt>
      <trkpt lat="45.78906" lon="4.98638">
        <ele>234</ele>
        <time>2015-04-26T11:42:19Z</time>
      </trkpt>
      <trkpt lat="45.78909" lon="4.98635">
        <ele>233</ele>
        <time>2015-04-26T11:42:20Z</time>
      </trkpt>
      <trkpt lat="45.78914" lon="4.9863">
        <ele>233</ele>
        <time>2015-04-26T11:42:22Z</time>
      </trkpt>
      <trkpt lat="45.78917" lon="4.98627">
        <ele>234</ele>
        <time>2015-04-26T11:42:23Z</time>
      </trkpt>
      <trkpt lat="45.78924" lon="4.98623">
        <ele>233</ele>
        <time>2015-04-26T11:42:25Z</time>
      </trkpt>
      <trkpt lat="45.78927" lon="4.98622">
        <ele>233</ele>
        <time>2015-04-26T11:42:26Z</time>
      </trkpt>
      <trkpt lat="45.78933" lon="4.98618">
        <ele>233</ele>
        <time>2015-04-26T11:42:28Z</time>
      </trkpt>
      <trkpt lat="45.78936" lon="4.98616">
        <ele>234</ele>
        <time>2015-04-26T11:42:29Z</time>
      </trkpt>
      <trkpt lat="45.78942" lon="4.98612">
        <ele>234</ele>
        <time>2015-04-26T11:42:31Z</time>
      </trkpt>
      <trkpt lat="45.78945" lon="4.9861">
        <ele>234</ele>
        <time>2015-04-26T11:42:32Z</time>
      </trkpt>
      <trkpt lat="45.78952" lon="4.98606">
        <ele>234</ele>
        <time>2015-04-26T11:42:34Z</time>
      </trkpt>
      <trkpt lat="45.78955" lon="4.98604">
        <ele>234</ele>
        <time>2015-04-26T11:42:35Z</time>
      </trkpt>
      <trkpt lat="45.78961" lon="4.986">
        <ele>234</ele>
        <time>2015-04-26T11:42:37Z</time>
      </trkpt>
      <trkpt lat="45.78964" lon="4.98597">
        <ele>234</ele>
        <time>2015-04-26T11:42:38Z</time>
      </trkpt>
      <trkpt lat="45.78969" lon="4.98592">
        <ele>234</ele>
        <time>2015-04-26T11:42:40Z</time>
      </trkpt>
      <trkpt lat="45.78971" lon="4.9859">
        <ele>234</ele>
        <time>2015-04-26T11:42:41Z</time>
      </trkpt>
      <trkpt lat="45.78973" lon="4.98584">
        <ele>234</ele>
        <time>2015-04-26T11:42:43Z</time>
      </trkpt>
      <trkpt lat="45.78974" lon="4.98579">
        <ele>234.5</ele>
        <time>2015-04-26T11:42:45Z</time>
      </trkpt>
      <trkpt lat="45.78973" lon="4.98572">
        <ele>235</ele>
        <time>2015-04-26T11:42:47Z</time>
      </trkpt>
      <trkpt lat="45.78972" lon="4.98568">
        <ele>235.5</ele>
        <time>2015-04-26T11:42:49Z</time>
      </trkpt>
      <trkpt lat="45.7897" lon="4.98562">
        <ele>235</ele>
        <time>2015-04-26T11:42:51Z</time>
      </trkpt>
      <trkpt lat="45.78968" lon="4.98558">
        <ele>235</ele>
        <time>2015-04-26T11:42:53Z</time>
      </trkpt>
      <trkpt lat="45.78965" lon="4.98552">
        <ele>236</ele>
        <time>2015-04-26T11:42:55Z</time>
      </trkpt>
      <trkpt lat="45.78963" lon="4.98549">
        <ele>235.5</ele>
        <time>2015-04-26T11:42:57Z</time>
      </trkpt>
      <trkpt lat="45.78959" lon="4.98544">
        <ele>235</ele>
        <time>2015-04-26T11:42:59Z</time>
      </trkpt>
      <trkpt lat="45.78958" lon="4.98541">
        <ele>235</ele>
        <time>2015-04-26T11:43:00Z</time>
      </trkpt>
      <trkpt lat="45.78955" lon="4.98536">
        <ele>235</ele>
        <time>2015-04-26T11:43:02Z</time>
      </trkpt>
      <trkpt lat="45.78954" lon="4.98533">
        <ele>235</ele>
        <time>2015-04-26T11:43:03Z</time>
      </trkpt>
      <trkpt lat="45.78951" lon="4.98528">
        <ele>235</ele>
        <time>2015-04-26T11:43:05Z</time>
      </trkpt>
      <trkpt lat="45.7895" lon="4.98525">
        <ele>234</ele>
        <time>2015-04-26T11:43:06Z</time>
      </trkpt>
      <trkpt lat="45.78947" lon="4.9852">
        <ele>235</ele>
        <time>2015-04-26T11:43:08Z</time>
      </trkpt>
      <trkpt lat="45.78945" lon="4.98518">
        <ele>235</ele>
        <time>2015-04-26T11:43:09Z</time>
      </trkpt>
      <trkpt lat="45.78942" lon="4.98513">
        <ele>235</ele>
        <time>2015-04-26T11:43:11Z</time>
      </trkpt>
      <trkpt lat="45.7894" lon="4.98511">
        <ele>234</ele>
        <time>2015-04-26T11:43:12Z</time>
      </trkpt>
      <trkpt lat="45.78937" lon="4.98506">
        <ele>235</ele>
        <time>2015-04-26T11:43:14Z</time>
      </trkpt>
      <trkpt lat="45.78936" lon="4.98503">
        <ele>235</ele>
        <time>2015-04-26T11:43:15Z</time>
      </trkpt>
      <trkpt lat="45.78933" lon="4.98498">
        <ele>234</ele>
        <time>2015-04-26T11:43:17Z</time>
      </trkpt>
      <trkpt lat="45.78931" lon="4.98496">
        <ele>234</ele>
        <time>2015-04-26T11:43:18Z</time>
      </trkpt>
      <trkpt lat="45.78928" lon="4.9849">
        <ele>234</ele>
        <time>2015-04-26T11:43:20Z</time>
      </trkpt>
      <trkpt lat="45.78927" lon="4.98488">
        <ele>233</ele>
        <time>2015-04-26T11:43:21Z</time>
      </trkpt>
      <trkpt lat="45.78924" lon="4.98482">
        <ele>233</ele>
        <time>2015-04-26T11:43:23Z</time>
      </trkpt>
      <trkpt lat="45.78922" lon="4.9848">
        <ele>233</ele>
        <time>2015-04-26T11:43:24Z</time>
      </trkpt>
      <trkpt lat="45.78919" lon="4.98475">
        <ele>233</ele>
        <time>2015-04-26T11:43:26Z</time>
      </trkpt>
      <trkpt lat="45.78917" lon="4.98473">
        <ele>233</ele>
        <time>2015-04-26T11:43:27Z</time>
      </trkpt>
      <trkpt lat="45.78914" lon="4.98468">
        <ele>232</ele>
        <time>2015-04-26T11:43:29Z</time>
      </trkpt>
      <trkpt lat="45.78912" lon="4.98466">
        <ele>233</ele>
        <time>2015-04-26T11:43:30Z</time>
      </trkpt>
      <trkpt lat="45.78908" lon="4.98462">
        <ele>233</ele>
        <time>2015-04-26T11:43:32Z</time>
      </trkpt>
      <trkpt lat="45.78907" lon="4.9846">
        <ele>233</ele>
        <time>2015-04-26T11:43:33Z</time>
      </trkpt>
      <trkpt lat="45.78903" lon="4.98455">
        <ele>233</ele>
        <time>2015-04-26T11:43:35Z</time>
      </trkpt>
      <trkpt lat="45.78902" lon="4.98453">
        <ele>233</ele>
        <time>2015-04-26T11:43:36Z</time>
      </trkpt>
      <trkpt lat="45.78899" lon="4.98448">
        <ele>233</ele>
        <time>2015-04-26T11:43:38Z</time>
      </trkpt>
      <trkpt lat="45.78897" lon="4.98445">
        <ele>233</ele>
        <time>2015-04-26T11:43:39Z</time>
      </trkpt>
      <trkpt lat="45.78894" lon="4.9844">
        <ele>233</ele>
        <time>2015-04-26T11:43:41Z</time>
      </trkpt>
      <trkpt lat="45.78892" lon="4.98437">
        <ele>233</ele>
        <time>2015-04-26T11:43:43Z</time>
      </trkpt>
      <trkpt lat="45.78887" lon="4.98432">
        <ele>234</ele>
        <time>2015-04-26T11:43:45Z</time>
      </trkpt>
      <trkpt lat="45.78885" lon="4.98429">
        <ele>233</ele>
        <time>2015-04-26T11:43:47Z</time>
      </trkpt>
      <trkpt lat="45.78881" lon="4.98424">
        <ele>233</ele>
        <time>2015-04-26T11:43:49Z</time>
      </trkpt>
      <trkpt lat="45.78879" lon="4.9842">
        <ele>233</ele>
        <time>2015-04-26T11:43:51Z</time>
      </trkpt>
      <trkpt lat="45.78874" lon="4.98416">
        <ele>233</ele>
        <time>2015-04-26T11:43:53Z</time>
      </trkpt>
      <trkpt lat="45.78872" lon="4.98414">
        <ele>233</ele>
        <time>2015-04-26T11:43:54Z</time>
      </trkpt>
      <trkpt lat="45.78869" lon="4.9841">
        <ele>233</ele>
        <time>2015-04-26T11:43:56Z</time>
      </trkpt>
      <trkpt lat="45.78867" lon="4.98409">
        <ele>233</ele>
        <time>2015-04-26T11:43:57Z</time>
      </trkpt>
      <trkpt lat="45.78863" lon="4.98405">
        <ele>233</ele>
        <time>2015-04-26T11:43:59Z</time>
      </trkpt>
      <trkpt lat="45.78861" lon="4.98402">
        <ele>233</ele>
        <time>2015-04-26T11:44:00Z</time>
      </trkpt>
      <trkpt lat="45.78858" lon="4.98398">
        <ele>234</ele>
        <time>2015-04-26T11:44:02Z</time>
      </trkpt>
      <trkpt lat="45.78856" lon="4.98395">
        <ele>233</ele>
        <time>2015-04-26T11:44:03Z</time>
      </trkpt>
      <trkpt lat="45.78853" lon="4.98391">
        <ele>233</ele>
        <time>2015-04-26T11:44:05Z</time>
      </trkpt>
      <trkpt lat="45.78851" lon="4.98388">
        <ele>233</ele>
        <time>2015-04-26T11:44:06Z</time>
      </trkpt>
      <trkpt lat="45.78848" lon="4.98384">
        <ele>233</ele>
        <time>2015-04-26T11:44:08Z</time>
      </trkpt>
      <trkpt lat="45.78846" lon="4.98382">
        <ele>233</ele>
        <time>2015-04-26T11:44:09Z</time>
      </trkpt>
      <trkpt lat="45.78842" lon="4.98378">
        <ele>233</ele>
        <time>2015-04-26T11:44:11Z</time>
      </trkpt>
      <trkpt lat="45.7884" lon="4.98376">
        <ele>233</ele>
        <time>2015-04-26T11:44:12Z</time>
      </trkpt>
      <trkpt lat="45.78836" lon="4.98373">
        <ele>233</ele>
        <time>2015-04-26T11:44:14Z</time>
      </trkpt>
      <trkpt lat="45.78834" lon="4.98371">
        <ele>232</ele>
        <time>2015-04-26T11:44:15Z</time>
      </trkpt>
      <trkpt lat="45.7883" lon="4.98367">
        <ele>232</ele>
        <time>2015-04-26T11:44:17Z</time>
      </trkpt>
      <trkpt lat="45.78828" lon="4.98366">
        <ele>232</ele>
        <time>2015-04-26T11:44:18Z</time>
      </trkpt>
      <trkpt lat="45.78824" lon="4.98362">
        <ele>232</ele>
        <time>2015-04-26T11:44:20Z</time>
      </trkpt>
      <trkpt lat="45.78822" lon="4.9836">
        <ele>232</ele>
        <time>2015-04-26T11:44:21Z</time>
      </trkpt>
      <trkpt lat="45.78819" lon="4.98356">
        <ele>232</ele>
        <time>2015-04-26T11:44:23Z</time>
      </trkpt>
      <trkpt lat="45.78817" lon="4.98354">
        <ele>232</ele>
        <time>2015-04-26T11:44:24Z</time>
      </trkpt>
      <trkpt lat="45.78813" lon="4.9835">
        <ele>232</ele>
        <time>2015-04-26T11:44:26Z</time>
      </trkpt>
      <trkpt lat="45.78811" lon="4.98348">
        <ele>232</ele>
        <time>2015-04-26T11:44:27Z</time>
      </trkpt>
      <trkpt lat="45.78807" lon="4.98344">
        <ele>231</ele>
        <time>2015-04-26T11:44:29Z</time>
      </trkpt>
      <trkpt lat="45.78805" lon="4.98342">
        <ele>232</ele>
        <time>2015-04-26T11:44:30Z</time>
      </trkpt>
      <trkpt lat="45.78801" lon="4.98338">
        <ele>231</ele>
        <time>2015-04-26T11:44:32Z</time>
      </trkpt>
      <trkpt lat="45.788" lon="4.98336">
        <ele>231</ele>
        <time>2015-04-26T11:44:33Z</time>
      </trkpt>
      <trkpt lat="45.78796" lon="4.98332">
        <ele>231</ele>
        <time>2015-04-26T11:44:35Z</time>
      </trkpt>
      <trkpt lat="45.78794" lon="4.9833">
        <ele>231</ele>
        <time>2015-04-26T11:44:36Z</time>
      </trkpt>
      <trkpt lat="45.78791" lon="4.98326">
        <ele>231</ele>
        <time>2015-04-26T11:44:38Z</time>
      </trkpt>
      <trkpt lat="45.78789" lon="4.98323">
        <ele>231</ele>
        <time>2015-04-26T11:44:39Z</time>
      </trkpt>
      <trkpt lat="45.78786" lon="4.98319">
        <ele>231</ele>
        <time>2015-04-26T11:44:41Z</time>
      </trkpt>
      <trkpt lat="45.78784" lon="4.98317">
        <ele>231</ele>
        <time>2015-04-26T11:44:42Z</time>
      </trkpt>
      <trkpt lat="45.78781" lon="4.98312">
        <ele>231</ele>
        <time>2015-04-26T11:44:44Z</time>
      </trkpt>
      <trkpt lat="45.78779" lon="4.9831">
        <ele>232</ele>
        <time>2015-04-26T11:44:45Z</time>
      </trkpt>
      <trkpt lat="45.78775" lon="4.98306">
        <ele>232</ele>
        <time>2015-04-26T11:44:47Z</time>
      </trkpt>
      <trkpt lat="45.78773" lon="4.98304">
        <ele>232</ele>
        <time>2015-04-26T11:44:48Z</time>
      </trkpt>
      <trkpt lat="45.78769" lon="4.983">
        <ele>232</ele>
        <time>2015-04-26T11:44:50Z</time>
      </trkpt>
      <trkpt lat="45.78767" lon="4.98298">
        <ele>232</ele>
        <time>2015-04-26T11:44:51Z</time>
      </trkpt>
      <trkpt lat="45.78764" lon="4.98294">
        <ele>232</ele>
        <time>2015-04-26T11:44:53Z</time>
      </trkpt>
      <trkpt lat="45.7876" lon="4.9829">
        <ele>232</ele>
        <time>2015-04-26T11:44:55Z</time>
      </trkpt>
      <trkpt lat="45.78758" lon="4.98287">
        <ele>232</ele>
        <time>2015-04-26T11:44:57Z</time>
      </trkpt>
      <trkpt lat="45.78753" lon="4.98283">
        <ele>232</ele>
        <time>2015-04-26T11:44:59Z</time>
      </trkpt>
      <trkpt lat="45.7875" lon="4.98281">
        <ele>232</ele>
        <time>2015-04-26T11:45:01Z</time>
      </trkpt>
      <trkpt lat="45.78745" lon="4.98277">
        <ele>232</ele>
        <time>2015-04-26T11:45:03Z</time>
      </trkpt>
      <trkpt lat="45.78743" lon="4.98276">
        <ele>232</ele>
        <time>2015-04-26T11:45:04Z</time>
      </trkpt>
      <trkpt lat="45.78739" lon="4.98272">
        <ele>232</ele>
        <time>2015-04-26T11:45:06Z</time>
      </trkpt>
      <trkpt lat="45.78738" lon="4.9827">
        <ele>232</ele>
        <time>2015-04-26T11:45:07Z</time>
      </trkpt>
      <trkpt lat="45.78734" lon="4.98266">
        <ele>232</ele>
        <time>2015-04-26T11:45:09Z</time>
      </trkpt>
      <trkpt lat="45.78731" lon="4.98262">
        <ele>233</ele>
        <time>2015-04-26T11:45:11Z</time>
      </trkpt>
      <trkpt lat="45.78728" lon="4.98258">
        <ele>232</ele>
        <time>2015-04-26T11:45:13Z</time>
      </trkpt>
      <trkpt lat="45.78724" lon="4.98253">
        <ele>232</ele>
        <time>2015-04-26T11:45:15Z</time>
      </trkpt>
      <trkpt lat="45.78721" lon="4.98249">
        <ele>232</ele>
        <time>2015-04-26T11:45:17Z</time>
      </trkpt>
      <trkpt lat="45.78719" lon="4.98247">
        <ele>232</ele>
        <time>2015-04-26T11:45:18Z</time>
      </trkpt>
      <trkpt lat="45.78715" lon="4.98244">
        <ele>232</ele>
        <time>2015-04-26T11:45:20Z</time>
      </trkpt>
      <trkpt lat="45.78713" lon="4.98239">
        <ele>234</ele>
        <time>2015-04-26T11:45:22Z</time>
      </trkpt>
      <trkpt lat="45.7871" lon="4.98234">
        <ele>233</ele>
        <time>2015-04-26T11:45:24Z</time>
      </trkpt>
      <trkpt lat="45.78707" lon="4.9823">
        <ele>234</ele>
        <time>2015-04-26T11:45:26Z</time>
      </trkpt>
      <trkpt lat="45.78705" lon="4.98226">
        <ele>234</ele>
        <time>2015-04-26T11:45:28Z</time>
      </trkpt>
      <trkpt lat="45.78702" lon="4.98221">
        <ele>234</ele>
        <time>2015-04-26T11:45:30Z</time>
      </trkpt>
      <trkpt lat="45.78699" lon="4.98217">
        <ele>234</ele>
        <time>2015-04-26T11:45:32Z</time>
      </trkpt>
      <trkpt lat="45.78696" lon="4.98213">
        <ele>235</ele>
        <time>2015-04-26T11:45:34Z</time>
      </trkpt>
      <trkpt lat="45.78693" lon="4.98208">
        <ele>235</ele>
        <time>2015-04-26T11:45:36Z</time>
      </trkpt>
      <trkpt lat="45.7869" lon="4.98204">
        <ele>235</ele>
        <time>2015-04-26T11:45:38Z</time>
      </trkpt>
      <trkpt lat="45.78687" lon="4.982">
        <ele>234</ele>
        <time>2015-04-26T11:45:40Z</time>
      </trkpt>
      <trkpt lat="45.78683" lon="4.98196">
        <ele>235</ele>
        <time>2015-04-26T11:45:42Z</time>
      </trkpt>
      <trkpt lat="45.78681" lon="4.98194">
        <ele>234</ele>
        <time>2015-04-26T11:45:43Z</time>
      </trkpt>
      <trkpt lat="45.78678" lon="4.9819">
        <ele>235</ele>
        <time>2015-04-26T11:45:45Z</time>
      </trkpt>
      <trkpt lat="45.78676" lon="4.98188">
        <ele>235</ele>
        <time>2015-04-26T11:45:46Z</time>
      </trkpt>
      <trkpt lat="45.78672" lon="4.98184">
        <ele>235</ele>
        <time>2015-04-26T11:45:48Z</time>
      </trkpt>
      <trkpt lat="45.7867" lon="4.98182">
        <ele>234</ele>
        <time>2015-04-26T11:45:49Z</time>
      </trkpt>
      <trkpt lat="45.78667" lon="4.98178">
        <ele>234</ele>
        <time>2015-04-26T11:45:51Z</time>
      </trkpt>
      <trkpt lat="45.78665" lon="4.98175">
        <ele>234</ele>
        <time>2015-04-26T11:45:52Z</time>
      </trkpt>
      <trkpt lat="45.78662" lon="4.98171">
        <ele>235</ele>
        <time>2015-04-26T11:45:54Z</time>
      </trkpt>
      <trkpt lat="45.7866" lon="4.98167">
        <ele>235</ele>
        <time>2015-04-26T11:45:56Z</time>
      </trkpt>
      <trkpt lat="45.78656" lon="4.98161">
        <ele>235</ele>
        <time>2015-04-26T11:45:58Z</time>
      </trkpt>
      <trkpt lat="45.78653" lon="4.98158">
        <ele>235</ele>
        <time>2015-04-26T11:46:00Z</time>
      </trkpt>
      <trkpt lat="45.78649" lon="4.98153">
        <ele>235</ele>
        <time>2015-04-26T11:46:02Z</time>
      </trkpt>
      <trkpt lat="45.78648" lon="4.98151">
        <ele>235</ele>
        <time>2015-04-26T11:46:03Z</time>
      </trkpt>
      <trkpt lat="45.78645" lon="4.98146">
        <ele>234</ele>
        <time>2015-04-26T11:46:05Z</time>
      </trkpt>
      <trkpt lat="45.78641" lon="4.98142">
        <ele>235</ele>
        <time>2015-04-26T11:46:07Z</time>
      </trkpt>
      <trkpt lat="45.78639" lon="4.9814">
        <ele>235</ele>
        <time>2015-04-26T11:46:08Z</time>
      </trkpt>
      <trkpt lat="45.78635" lon="4.98136">
        <ele>235</ele>
        <time>2015-04-26T11:46:10Z</time>
      </trkpt>
      <trkpt lat="45.78633" lon="4.98135">
        <ele>234</ele>
        <time>2015-04-26T11:46:11Z</time>
      </trkpt>
      <trkpt lat="45.78629" lon="4.98131">
        <ele>235</ele>
        <time>2015-04-26T11:46:13Z</time>
      </trkpt>
      <trkpt lat="45.78627" lon="4.98129">
        <ele>235</ele>
        <time>2015-04-26T11:46:14Z</time>
      </trkpt>
      <trkpt lat="45.78623" lon="4.98125">
        <ele>235</ele>
        <time>2015-04-26T11:46:16Z</time>
      </trkpt>
      <trkpt lat="45.78621" lon="4.98123">
        <ele>235</ele>
        <time>2015-04-26T11:46:17Z</time>
      </trkpt>
      <trkpt lat="45.78617" lon="4.9812">
        <ele>235</ele>
        <time>2015-04-26T11:46:19Z</time>
      </trkpt>
      <trkpt lat="45.78615" lon="4.98118">
        <ele>234</ele>
        <time>2015-04-26T11:46:20Z</time>
      </trkpt>
      <trkpt lat="45.78611" lon="4.98114">
        <ele>234</ele>
        <time>2015-04-26T11:46:22Z</time>
      </trkpt>
      <trkpt lat="45.78609" lon="4.98111">
        <ele>234</ele>
        <time>2015-04-26T11:46:24Z</time>
      </trkpt>
      <trkpt lat="45.78605" lon="4.98106">
        <ele>234</ele>
        <time>2015-04-26T11:46:26Z</time>
      </trkpt>
      <trkpt lat="45.78603" lon="4.98103">
        <ele>234</ele>
        <time>2015-04-26T11:46:27Z</time>
      </trkpt>
      <trkpt lat="45.786" lon="4.98098">
        <ele>234</ele>
        <time>2015-04-26T11:46:29Z</time>
      </trkpt>
      <trkpt lat="45.78599" lon="4.98096">
        <ele>234</ele>
        <time>2015-04-26T11:46:30Z</time>
      </trkpt>
      <trkpt lat="45.78595" lon="4.98091">
        <ele>234</ele>
        <time>2015-04-26T11:46:32Z</time>
      </trkpt>
      <trkpt lat="45.78593" lon="4.98088">
        <ele>234.5</ele>
        <time>2015-04-26T11:46:34Z</time>
      </trkpt>
      <trkpt lat="45.78589" lon="4.98082">
        <ele>235</ele>
        <time>2015-04-26T11:46:36Z</time>
      </trkpt>
      <trkpt lat="45.78588" lon="4.9808">
        <ele>235</ele>
        <time>2015-04-26T11:46:37Z</time>
      </trkpt>
      <trkpt lat="45.78585" lon="4.98075">
        <ele>235</ele>
        <time>2015-04-26T11:46:39Z</time>
      </trkpt>
      <trkpt lat="45.78583" lon="4.98073">
        <ele>234</ele>
        <time>2015-04-26T11:46:40Z</time>
      </trkpt>
      <trkpt lat="45.78579" lon="4.98069">
        <ele>235</ele>
        <time>2015-04-26T11:46:42Z</time>
      </trkpt>
      <trkpt lat="45.78577" lon="4.98067">
        <ele>235</ele>
        <time>2015-04-26T11:46:43Z</time>
      </trkpt>
      <trkpt lat="45.78573" lon="4.98064">
        <ele>235</ele>
        <time>2015-04-26T11:46:45Z</time>
      </trkpt>
      <trkpt lat="45.78571" lon="4.98062">
        <ele>235</ele>
        <time>2015-04-26T11:46:46Z</time>
      </trkpt>
      <trkpt lat="45.78568" lon="4.98057">
        <ele>235</ele>
        <time>2015-04-26T11:46:48Z</time>
      </trkpt>
      <trkpt lat="45.78566" lon="4.98055">
        <ele>235</ele>
        <time>2015-04-26T11:46:49Z</time>
      </trkpt>
      <trkpt lat="45.78563" lon="4.9805">
        <ele>235</ele>
        <time>2015-04-26T11:46:51Z</time>
      </trkpt>
      <trkpt lat="45.7856" lon="4.98046">
        <ele>235</ele>
        <time>2015-04-26T11:46:53Z</time>
      </trkpt>
      <trkpt lat="45.78557" lon="4.98041">
        <ele>235</ele>
        <time>2015-04-26T11:46:55Z</time>
      </trkpt>
      <trkpt lat="45.78554" lon="4.98037">
        <ele>235</ele>
        <time>2015-04-26T11:46:57Z</time>
      </trkpt>
      <trkpt lat="45.7855" lon="4.98034">
        <ele>235</ele>
        <time>2015-04-26T11:46:59Z</time>
      </trkpt>
      <trkpt lat="45.78547" lon="4.9803">
        <ele>236</ele>
        <time>2015-04-26T11:47:01Z</time>
      </trkpt>
      <trkpt lat="45.78543" lon="4.98025">
        <ele>235</ele>
        <time>2015-04-26T11:47:03Z</time>
      </trkpt>
      <trkpt lat="45.78542" lon="4.98023">
        <ele>235</ele>
        <time>2015-04-26T11:47:04Z</time>
      </trkpt>
      <trkpt lat="45.78538" lon="4.98019">
        <ele>235</ele>
        <time>2015-04-26T11:47:06Z</time>
      </trkpt>
      <trkpt lat="45.78536" lon="4.98017">
        <ele>235</ele>
        <time>2015-04-26T11:47:07Z</time>
      </trkpt>
      <trkpt lat="45.78532" lon="4.98013">
        <ele>234</ele>
        <time>2015-04-26T11:47:09Z</time>
      </trkpt>
      <trkpt lat="45.78528" lon="4.98011">
        <ele>234</ele>
        <time>2015-04-26T11:47:11Z</time>
      </trkpt>
      <trkpt lat="45.78524" lon="4.98009">
        <ele>235</ele>
        <time>2015-04-26T11:47:13Z</time>
      </trkpt>
      <trkpt lat="45.7852" lon="4.98006">
        <ele>234</ele>
        <time>2015-04-26T11:47:15Z</time>
      </trkpt>
      <trkpt lat="45.78516" lon="4.98004">
        <ele>233</ele>
        <time>2015-04-26T11:47:17Z</time>
      </trkpt>
      <trkpt lat="45.78513" lon="4.98002">
        <ele>233</ele>
        <time>2015-04-26T11:47:19Z</time>
      </trkpt>
      <trkpt lat="45.78508" lon="4.97999">
        <ele>234</ele>
        <time>2015-04-26T11:47:21Z</time>
      </trkpt>
      <trkpt lat="45.78506" lon="4.97998">
        <ele>234</ele>
        <time>2015-04-26T11:47:22Z</time>
      </trkpt>
      <trkpt lat="45.78503" lon="4.97993">
        <ele>233</ele>
        <time>2015-04-26T11:47:24Z</time>
      </trkpt>
      <trkpt lat="45.78501" lon="4.9799">
        <ele>233</ele>
        <time>2015-04-26T11:47:25Z</time>
      </trkpt>
      <trkpt lat="45.78497" lon="4.97986">
        <ele>233</ele>
        <time>2015-04-26T11:47:27Z</time>
      </trkpt>
      <trkpt lat="45.78495" lon="4.97984">
        <ele>234</ele>
        <time>2015-04-26T11:47:28Z</time>
      </trkpt>
      <trkpt lat="45.78492" lon="4.97979">
        <ele>234</ele>
        <time>2015-04-26T11:47:30Z</time>
      </trkpt>
      <trkpt lat="45.7849" lon="4.97977">
        <ele>233</ele>
        <time>2015-04-26T11:47:31Z</time>
      </trkpt>
      <trkpt lat="45.78487" lon="4.97972">
        <ele>234</ele>
        <time>2015-04-26T11:47:33Z</time>
      </trkpt>
      <trkpt lat="45.78484" lon="4.97971">
        <ele>234</ele>
        <time>2015-04-26T11:47:35Z</time>
      </trkpt>
      <trkpt lat="45.78479" lon="4.97968">
        <ele>234</ele>
        <time>2015-04-26T11:47:37Z</time>
      </trkpt>
      <trkpt lat="45.78477" lon="4.97965">
        <ele>233.5</ele>
        <time>2015-04-26T11:47:39Z</time>
      </trkpt>
      <trkpt lat="45.78472" lon="4.97961">
        <ele>234</ele>
        <time>2015-04-26T11:47:41Z</time>
      </trkpt>
      <trkpt lat="45.7847" lon="4.97959">
        <ele>234</ele>
        <time>2015-04-26T11:47:42Z</time>
      </trkpt>
      <trkpt lat="45.78466" lon="4.97956">
        <ele>234</ele>
        <time>2015-04-26T11:47:44Z</time>
      </trkpt>
      <trkpt lat="45.78463" lon="4.97951">
        <ele>234</ele>
        <time>2015-04-26T11:47:46Z</time>
      </trkpt>
      <trkpt lat="45.7846" lon="4.97948">
        <ele>234</ele>
        <time>2015-04-26T11:47:48Z</time>
      </trkpt>
      <trkpt lat="45.78457" lon="4.97944">
        <ele>234</ele>
        <time>2015-04-26T11:47:50Z</time>
      </trkpt>
      <trkpt lat="45.78453" lon="4.9794">
        <ele>233</ele>
        <time>2015-04-26T11:47:52Z</time>
      </trkpt>
      <trkpt lat="45.78449" lon="4.97937">
        <ele>234</ele>
        <time>2015-04-26T11:47:54Z</time>
      </trkpt>
      <trkpt lat="45.78446" lon="4.97933">
        <ele>233</ele>
        <time>2015-04-26T11:47:56Z</time>
      </trkpt>
      <trkpt lat="45.78444" lon="4.97931">
        <ele>233</ele>
        <time>2015-04-26T11:47:57Z</time>
      </trkpt>
      <trkpt lat="45.7844" lon="4.97927">
        <ele>232</ele>
        <time>2015-04-26T11:47:59Z</time>
      </trkpt>
      <trkpt lat="45.78437" lon="4.97924">
        <ele>232</ele>
        <time>2015-04-26T11:48:01Z</time>
      </trkpt>
      <trkpt lat="45.78433" lon="4.97919">
        <ele>232</ele>
        <time>2015-04-26T11:48:03Z</time>
      </trkpt>
      <trkpt lat="45.78431" lon="4.97915">
        <ele>232.5</ele>
        <time>2015-04-26T11:48:05Z</time>
      </trkpt>
      <trkpt lat="45.78428" lon="4.9791">
        <ele>233</ele>
        <time>2015-04-26T11:48:07Z</time>
      </trkpt>
      <trkpt lat="45.78425" lon="4.97907">
        <ele>233</ele>
        <time>2015-04-26T11:48:09Z</time>
      </trkpt>
      <trkpt lat="45.78421" lon="4.97902">
        <ele>233</ele>
        <time>2015-04-26T11:48:11Z</time>
      </trkpt>
      <trkpt lat="45.78418" lon="4.97899">
        <ele>232</ele>
        <time>2015-04-26T11:48:13Z</time>
      </trkpt>
      <trkpt lat="45.78413" lon="4.97896">
        <ele>232</ele>
        <time>2015-04-26T11:48:15Z</time>
      </trkpt>
      <trkpt lat="45.78411" lon="4.97894">
        <ele>232</ele>
        <time>2015-04-26T11:48:16Z</time>
      </trkpt>
      <trkpt lat="45.78408" lon="4.9789">
        <ele>231</ele>
        <time>2015-04-26T11:48:18Z</time>
      </trkpt>
      <trkpt lat="45.78406" lon="4.97888">
        <ele>231</ele>
        <time>2015-04-26T11:48:19Z</time>
      </trkpt>
      <trkpt lat="45.78402" lon="4.97884">
        <ele>231</ele>
        <time>2015-04-26T11:48:21Z</time>
      </trkpt>
      <trkpt lat="45.784" lon="4.97882">
        <ele>232</ele>
        <time>2015-04-26T11:48:22Z</time>
      </trkpt>
      <trkpt lat="45.78396" lon="4.97878">
        <ele>231</ele>
        <time>2015-04-26T11:48:24Z</time>
      </trkpt>
      <trkpt lat="45.78394" lon="4.97876">
        <ele>231</ele>
        <time>2015-04-26T11:48:25Z</time>
      </trkpt>
      <trkpt lat="45.7839" lon="4.97873">
        <ele>232</ele>
        <time>2015-04-26T11:48:27Z</time>
      </trkpt>
      <trkpt lat="45.78388" lon="4.97872">
        <ele>232</ele>
        <time>2015-04-26T11:48:28Z</time>
      </trkpt>
      <trkpt lat="45.78385" lon="4.97867">
        <ele>233</ele>
        <time>2015-04-26T11:48:30Z</time>
      </trkpt>
      <trkpt lat="45.78382" lon="4.97863">
        <ele>233</ele>
        <time>2015-04-26T11:48:32Z</time>
      </trkpt>
      <trkpt lat="45.78379" lon="4.97859">
        <ele>233</ele>
        <time>2015-04-26T11:48:34Z</time>
      </trkpt>
      <trkpt lat="45.78375" lon="4.97855">
        <ele>232</ele>
        <time>2015-04-26T11:48:36Z</time>
      </trkpt>
      <trkpt lat="45.78372" lon="4.97852">
        <ele>232.5</ele>
        <time>2015-04-26T11:48:38Z</time>
      </trkpt>
      <trkpt lat="45.78368" lon="4.97847">
        <ele>233</ele>
        <time>2015-04-26T11:48:40Z</time>
      </trkpt>
      <trkpt lat="45.78366" lon="4.97844">
        <ele>233</ele>
        <time>2015-04-26T11:48:42Z</time>
      </trkpt>
      <trkpt lat="45.78361" lon="4.97839">
        <ele>233</ele>
        <time>2015-04-26T11:48:44Z</time>
      </trkpt>
      <trkpt lat="45.78359" lon="4.97836">
        <ele>232.5</ele>
        <time>2015-04-26T11:48:46Z</time>
      </trkpt>
      <trkpt lat="45.78354" lon="4.97832">
        <ele>232</ele>
        <time>2015-04-26T11:48:48Z</time>
      </trkpt>
      <trkpt lat="45.78352" lon="4.9783">
        <ele>232</ele>
        <time>2015-04-26T11:48:49Z</time>
      </trkpt>
      <trkpt lat="45.78348" lon="4.97827">
        <ele>232</ele>
        <time>2015-04-26T11:48:51Z</time>
      </trkpt>
      <trkpt lat="45.78345" lon="4.97823">
        <ele>233</ele>
        <time>2015-04-26T11:48:53Z</time>
      </trkpt>
      <trkpt lat="45.78342" lon="4.97819">
        <ele>233</ele>
        <time>2015-04-26T11:48:55Z</time>
      </trkpt>
      <trkpt lat="45.78339" lon="4.97815">
        <ele>233</ele>
        <time>2015-04-26T11:48:57Z</time>
      </trkpt>
      <trkpt lat="45.78337" lon="4.9781">
        <ele>233</ele>
        <time>2015-04-26T11:48:59Z</time>
      </trkpt>
      <trkpt lat="45.78335" lon="4.97806">
        <ele>233</ele>
        <time>2015-04-26T11:49:01Z</time>
      </trkpt>
      <trkpt lat="45.78334" lon="4.97802">
        <ele>233</ele>
        <time>2015-04-26T11:49:03Z</time>
      </trkpt>
      <trkpt lat="45.78332" lon="4.97798">
        <ele>233</ele>
        <time>2015-04-26T11:49:05Z</time>
      </trkpt>
      <trkpt lat="45.7833" lon="4.97793">
        <ele>234</ele>
        <time>2015-04-26T11:49:07Z</time>
      </trkpt>
      <trkpt lat="45.78327" lon="4.97789">
        <ele>234</ele>
        <time>2015-04-26T11:49:09Z</time>
      </trkpt>
      <trkpt lat="45.78324" lon="4.97786">
        <ele>234</ele>
        <time>2015-04-26T11:49:11Z</time>
      </trkpt>
      <trkpt lat="45.7832" lon="4.97784">
        <ele>234</ele>
        <time>2015-04-26T11:49:13Z</time>
      </trkpt>
      <trkpt lat="45.78317" lon="4.9778">
        <ele>235</ele>
        <time>2015-04-26T11:49:15Z</time>
      </trkpt>
      <trkpt lat="45.78313" lon="4.97777">
        <ele>235</ele>
        <time>2015-04-26T11:49:17Z</time>
      </trkpt>
      <trkpt lat="45.7831" lon="4.97774">
        <ele>235</ele>
        <time>2015-04-26T11:49:19Z</time>
      </trkpt>
      <trkpt lat="45.78307" lon="4.9777">
        <ele>235</ele>
        <time>2015-04-26T11:49:21Z</time>
      </trkpt>
      <trkpt lat="45.78303" lon="4.97766">
        <ele>234</ele>
        <time>2015-04-26T11:49:23Z</time>
      </trkpt>
      <trkpt lat="45.783" lon="4.97763">
        <ele>235</ele>
        <time>2015-04-26T11:49:25Z</time>
      </trkpt>
      <trkpt lat="45.78297" lon="4.97759">
        <ele>236</ele>
        <time>2015-04-26T11:49:27Z</time>
      </trkpt>
      <trkpt lat="45.78293" lon="4.97755">
        <ele>236</ele>
        <time>2015-04-26T11:49:29Z</time>
      </trkpt>
      <trkpt lat="45.7829" lon="4.97751">
        <ele>235</ele>
        <time>2015-04-26T11:49:31Z</time>
      </trkpt>
      <trkpt lat="45.78287" lon="4.97747">
        <ele>235</ele>
        <time>2015-04-26T11:49:33Z</time>
      </trkpt>
      <trkpt lat="45.78283" lon="4.97743">
        <ele>235</ele>
        <time>2015-04-26T11:49:35Z</time>
      </trkpt>
      <trkpt lat="45.78281" lon="4.9774">
        <ele>235.5</ele>
        <time>2015-04-26T11:49:37Z</time>
      </trkpt>
      <trkpt lat="45.78277" lon="4.97734">
        <ele>235</ele>
        <time>2015-04-26T11:49:39Z</time>
      </trkpt>
      <trkpt lat="45.78275" lon="4.97731">
        <ele>235</ele>
        <time>2015-04-26T11:49:41Z</time>
      </trkpt>
      <trkpt lat="45.78272" lon="4.97727">
        <ele>236</ele>
        <time>2015-04-26T11:49:43Z</time>
      </trkpt>
      <trkpt lat="45.7827" lon="4.97723">
        <ele>236</ele>
        <time>2015-04-26T11:49:45Z</time>
      </trkpt>
      <trkpt lat="45.78266" lon="4.97718">
        <ele>236</ele>
        <time>2015-04-26T11:49:47Z</time>
      </trkpt>
      <trkpt lat="45.78263" lon="4.97715">
        <ele>237</ele>
        <time>2015-04-26T11:49:49Z</time>
      </trkpt>
      <trkpt lat="45.78259" lon="4.9771">
        <ele>237</ele>
        <time>2015-04-26T11:49:51Z</time>
      </trkpt>
      <trkpt lat="45.78257" lon="4.97707">
        <ele>237</ele>
        <time>2015-04-26T11:49:52Z</time>
      </trkpt>
      <trkpt lat="45.78254" lon="4.97704">
        <ele>237</ele>
        <time>2015-04-26T11:49:54Z</time>
      </trkpt>
      <trkpt lat="45.78249" lon="4.97702">
        <ele>236</ele>
        <time>2015-04-26T11:49:56Z</time>
      </trkpt>
      <trkpt lat="45.78246" lon="4.97699">
        <ele>236</ele>
        <time>2015-04-26T11:49:58Z</time>
      </trkpt>
      <trkpt lat="45.78242" lon="4.97696">
        <ele>236</ele>
        <time>2015-04-26T11:50:00Z</time>
      </trkpt>
      <trkpt lat="45.78238" lon="4.97694">
        <ele>237</ele>
        <time>2015-04-26T11:50:02Z</time>
      </trkpt>
      <trkpt lat="45.78234" lon="4.97692">
        <ele>237</ele>
        <time>2015-04-26T11:50:04Z</time>
      </trkpt>
      <trkpt lat="45.78231" lon="4.97689">
        <ele>237</ele>
        <time>2015-04-26T11:50:06Z</time>
      </trkpt>
      <trkpt lat="45.78227" lon="4.97687">
        <ele>237</ele>
        <time>2015-04-26T11:50:08Z</time>
      </trkpt>
      <trkpt lat="45.78223" lon="4.97683">
        <ele>237</ele>
        <time>2015-04-26T11:50:10Z</time>
      </trkpt>
      <trkpt lat="45.78221" lon="4.97682">
        <ele>237</ele>
        <time>2015-04-26T11:50:11Z</time>
      </trkpt>
      <trkpt lat="45.78217" lon="4.97678">
        <ele>237</ele>
        <time>2015-04-26T11:50:13Z</time>
      </trkpt>
      <trkpt lat="45.78215" lon="4.97676">
        <ele>237</ele>
        <time>2015-04-26T11:50:14Z</time>
      </trkpt>
      <trkpt lat="45.78211" lon="4.97672">
        <ele>237</ele>
        <time>2015-04-26T11:50:16Z</time>
      </trkpt>
      <trkpt lat="45.7821" lon="4.97669">
        <ele>237</ele>
        <time>2015-04-26T11:50:17Z</time>
      </trkpt>
      <trkpt lat="45.78206" lon="4.97665">
        <ele>237</ele>
        <time>2015-04-26T11:50:19Z</time>
      </trkpt>
      <trkpt lat="45.78204" lon="4.97662">
        <ele>237</ele>
        <time>2015-04-26T11:50:21Z</time>
      </trkpt>
      <trkpt lat="45.78199" lon="4.97657">
        <ele>236</ele>
        <time>2015-04-26T11:50:23Z</time>
      </trkpt>
      <trkpt lat="45.78197" lon="4.97656">
        <ele>236</ele>
        <time>2015-04-26T11:50:24Z</time>
      </trkpt>
      <trkpt lat="45.78194" lon="4.97652">
        <ele>237</ele>
        <time>2015-04-26T11:50:26Z</time>
      </trkpt>
      <trkpt lat="45.78192" lon="4.97651">
        <ele>236</ele>
        <time>2015-04-26T11:50:27Z</time>
      </trkpt>
      <trkpt lat="45.78188" lon="4.97647">
        <ele>237</ele>
        <time>2015-04-26T11:50:29Z</time>
      </trkpt>
      <trkpt lat="45.78186" lon="4.97645">
        <ele>236</ele>
        <time>2015-04-26T11:50:30Z</time>
      </trkpt>
      <trkpt lat="45.78182" lon="4.97641">
        <ele>236</ele>
        <time>2015-04-26T11:50:32Z</time>
      </trkpt>
      <trkpt lat="45.7818" lon="4.97639">
        <ele>236</ele>
        <time>2015-04-26T11:50:33Z</time>
      </trkpt>
      <trkpt lat="45.78176" lon="4.97637">
        <ele>237</ele>
        <time>2015-04-26T11:50:35Z</time>
      </trkpt>
      <trkpt lat="45.78174" lon="4.97634">
        <ele>237</ele>
        <time>2015-04-26T11:50:36Z</time>
      </trkpt>
      <trkpt lat="45.78171" lon="4.9763">
        <ele>237</ele>
        <time>2015-04-26T11:50:38Z</time>
      </trkpt>
      <trkpt lat="45.78169" lon="4.97628">
        <ele>237</ele>
        <time>2015-04-26T11:50:39Z</time>
      </trkpt>
      <trkpt lat="45.78165" lon="4.97624">
        <ele>237</ele>
        <time>2015-04-26T11:50:41Z</time>
      </trkpt>
      <trkpt lat="45.78163" lon="4.97622">
        <ele>237</ele>
        <time>2015-04-26T11:50:42Z</time>
      </trkpt>
      <trkpt lat="45.7816" lon="4.97617">
        <ele>238</ele>
        <time>2015-04-26T11:50:44Z</time>
      </trkpt>
      <trkpt lat="45.78159" lon="4.97615">
        <ele>238</ele>
        <time>2015-04-26T11:50:45Z</time>
      </trkpt>
      <trkpt lat="45.78155" lon="4.97611">
        <ele>238</ele>
        <time>2015-04-26T11:50:47Z</time>
      </trkpt>
      <trkpt lat="45.78152" lon="4.97606">
        <ele>238</ele>
        <time>2015-04-26T11:50:49Z</time>
      </trkpt>
      <trkpt lat="45.78149" lon="4.97602">
        <ele>237</ele>
        <time>2015-04-26T11:50:51Z</time>
      </trkpt>
      <trkpt lat="45.78145" lon="4.97598">
        <ele>238</ele>
        <time>2015-04-26T11:50:53Z</time>
      </trkpt>
      <trkpt lat="45.78144" lon="4.97596">
        <ele>238</ele>
        <time>2015-04-26T11:50:54Z</time>
      </trkpt>
      <trkpt lat="45.7814" lon="4.97591">
        <ele>237</ele>
        <time>2015-04-26T11:50:56Z</time>
      </trkpt>
      <trkpt lat="45.78139" lon="4.97589">
        <ele>238</ele>
        <time>2015-04-26T11:50:57Z</time>
      </trkpt>
      <trkpt lat="45.78135" lon="4.97584">
        <ele>238</ele>
        <time>2015-04-26T11:50:59Z</time>
      </trkpt>
      <trkpt lat="45.78133" lon="4.97582">
        <ele>238</ele>
        <time>2015-04-26T11:51:00Z</time>
      </trkpt>
      <trkpt lat="45.7813" lon="4.97577">
        <ele>238</ele>
        <time>2015-04-26T11:51:02Z</time>
      </trkpt>
      <trkpt lat="45.78129" lon="4.97575">
        <ele>238</ele>
        <time>2015-04-26T11:51:03Z</time>
      </trkpt>
      <trkpt lat="45.78126" lon="4.9757">
        <ele>238</ele>
        <time>2015-04-26T11:51:05Z</time>
      </trkpt>
      <trkpt lat="45.78124" lon="4.97566">
        <ele>238</ele>
        <time>2015-04-26T11:51:07Z</time>
      </trkpt>
      <trkpt lat="45.7812" lon="4.9756">
        <ele>238</ele>
        <time>2015-04-26T11:51:09Z</time>
      </trkpt>
      <trkpt lat="45.78119" lon="4.97556">
        <ele>239</ele>
        <time>2015-04-26T11:51:11Z</time>
      </trkpt>
      <trkpt lat="45.78115" lon="4.9755">
        <ele>239</ele>
        <time>2015-04-26T11:51:13Z</time>
      </trkpt>
      <trkpt lat="45.78113" lon="4.97548">
        <ele>239</ele>
        <time>2015-04-26T11:51:15Z</time>
      </trkpt>
      <trkpt lat="45.78108" lon="4.97545">
        <ele>239</ele>
        <time>2015-04-26T11:51:17Z</time>
      </trkpt>
      <trkpt lat="45.78106" lon="4.97541">
        <ele>239</ele>
        <time>2015-04-26T11:51:19Z</time>
      </trkpt>
      <trkpt lat="45.78102" lon="4.97535">
        <ele>239</ele>
        <time>2015-04-26T11:51:21Z</time>
      </trkpt>
      <trkpt lat="45.78101" lon="4.97532">
        <ele>239</ele>
        <time>2015-04-26T11:51:23Z</time>
      </trkpt>
      <trkpt lat="45.78097" lon="4.97527">
        <ele>239</ele>
        <time>2015-04-26T11:51:25Z</time>
      </trkpt>
      <trkpt lat="45.78094" lon="4.97524">
        <ele>239</ele>
        <time>2015-04-26T11:51:27Z</time>
      </trkpt>
      <trkpt lat="45.78091" lon="4.97519">
        <ele>239</ele>
        <time>2015-04-26T11:51:29Z</time>
      </trkpt>
      <trkpt lat="45.78089" lon="4.97515">
        <ele>239</ele>
        <time>2015-04-26T11:51:31Z</time>
      </trkpt>
      <trkpt lat="45.78085" lon="4.97511">
        <ele>239</ele>
        <time>2015-04-26T11:51:33Z</time>
      </trkpt>
      <trkpt lat="45.78082" lon="4.97508">
        <ele>239</ele>
        <time>2015-04-26T11:51:35Z</time>
      </trkpt>
      <trkpt lat="45.78078" lon="4.97504">
        <ele>239</ele>
        <time>2015-04-26T11:51:37Z</time>
      </trkpt>
      <trkpt lat="45.78075" lon="4.97501">
        <ele>239</ele>
        <time>2015-04-26T11:51:39Z</time>
      </trkpt>
      <trkpt lat="45.78072" lon="4.97495">
        <ele>239</ele>
        <time>2015-04-26T11:51:41Z</time>
      </trkpt>
      <trkpt lat="45.7807" lon="4.97491">
        <ele>239</ele>
        <time>2015-04-26T11:51:43Z</time>
      </trkpt>
      <trkpt lat="45.78067" lon="4.97485">
        <ele>239</ele>
        <time>2015-04-26T11:51:45Z</time>
      </trkpt>
      <trkpt lat="45.78065" lon="4.97481">
        <ele>239</ele>
        <time>2015-04-26T11:51:47Z</time>
      </trkpt>
      <trkpt lat="45.78062" lon="4.97475">
        <ele>239</ele>
        <time>2015-04-26T11:51:49Z</time>
      </trkpt>
      <trkpt lat="45.78059" lon="4.97472">
        <ele>239</ele>
        <time>2015-04-26T11:51:51Z</time>
      </trkpt>
      <trkpt lat="45.78055" lon="4.97467">
        <ele>239</ele>
        <time>2015-04-26T11:51:53Z</time>
      </trkpt>
      <trkpt lat="45.78053" lon="4.97465">
        <ele>239</ele>
        <time>2015-04-26T11:51:54Z</time>
      </trkpt>
      <trkpt lat="45.7805" lon="4.9746">
        <ele>239</ele>
        <time>2015-04-26T11:51:56Z</time>
      </trkpt>
      <trkpt lat="45.78049" lon="4.97457">
        <ele>240</ele>
        <time>2015-04-26T11:51:57Z</time>
      </trkpt>
      <trkpt lat="45.78047" lon="4.97452">
        <ele>239</ele>
        <time>2015-04-26T11:51:59Z</time>
      </trkpt>
      <trkpt lat="45.78044" lon="4.97446">
        <ele>239</ele>
        <time>2015-04-26T11:52:01Z</time>
      </trkpt>
      <trkpt lat="45.78042" lon="4.97441">
        <ele>239</ele>
        <time>2015-04-26T11:52:03Z</time>
      </trkpt>
      <trkpt lat="45.78038" lon="4.97437">
        <ele>238</ele>
        <time>2015-04-26T11:52:05Z</time>
      </trkpt>
      <trkpt lat="45.78036" lon="4.97435">
        <ele>238</ele>
        <time>2015-04-26T11:52:06Z</time>
      </trkpt>
      <trkpt lat="45.78033" lon="4.97431">
        <ele>238</ele>
        <time>2015-04-26T11:52:08Z</time>
      </trkpt>
      <trkpt lat="45.78031" lon="4.97429">
        <ele>237</ele>
        <time>2015-04-26T11:52:09Z</time>
      </trkpt>
      <trkpt lat="45.78028" lon="4.97424">
        <ele>237</ele>
        <time>2015-04-26T11:52:11Z</time>
      </trkpt>
      <trkpt lat="45.78026" lon="4.97422">
        <ele>237</ele>
        <time>2015-04-26T11:52:12Z</time>
      </trkpt>
      <trkpt lat="45.78022" lon="4.97417">
        <ele>238</ele>
        <time>2015-04-26T11:52:14Z</time>
      </trkpt>
      <trkpt lat="45.7802" lon="4.97415">
        <ele>237</ele>
        <time>2015-04-26T11:52:15Z</time>
      </trkpt>
      <trkpt lat="45.78017" lon="4.9741">
        <ele>237</ele>
        <time>2015-04-26T11:52:17Z</time>
      </trkpt>
      <trkpt lat="45.78015" lon="4.97408">
        <ele>237</ele>
        <time>2015-04-26T11:52:18Z</time>
      </trkpt>
      <trkpt lat="45.78011" lon="4.97404">
        <ele>237</ele>
        <time>2015-04-26T11:52:20Z</time>
      </trkpt>
      <trkpt lat="45.7801" lon="4.97401">
        <ele>237</ele>
        <time>2015-04-26T11:52:21Z</time>
      </trkpt>
      <trkpt lat="45.78006" lon="4.97397">
        <ele>237</ele>
        <time>2015-04-26T11:52:23Z</time>
      </trkpt>
      <trkpt lat="45.78005" lon="4.97394">
        <ele>237</ele>
        <time>2015-04-26T11:52:24Z</time>
      </trkpt>
      <trkpt lat="45.78001" lon="4.9739">
        <ele>236</ele>
        <time>2015-04-26T11:52:26Z</time>
      </trkpt>
      <trkpt lat="45.77999" lon="4.97386">
        <ele>236</ele>
        <time>2015-04-26T11:52:28Z</time>
      </trkpt>
      <trkpt lat="45.77995" lon="4.97381">
        <ele>236</ele>
        <time>2015-04-26T11:52:30Z</time>
      </trkpt>
      <trkpt lat="45.77992" lon="4.97378">
        <ele>236</ele>
        <time>2015-04-26T11:52:32Z</time>
      </trkpt>
      <trkpt lat="45.77988" lon="4.97372">
        <ele>236</ele>
        <time>2015-04-26T11:52:34Z</time>
      </trkpt>
      <trkpt lat="45.77986" lon="4.97369">
        <ele>236.5</ele>
        <time>2015-04-26T11:52:36Z</time>
      </trkpt>
      <trkpt lat="45.77982" lon="4.97363">
        <ele>237</ele>
        <time>2015-04-26T11:52:38Z</time>
      </trkpt>
      <trkpt lat="45.7798" lon="4.97361">
        <ele>237</ele>
        <time>2015-04-26T11:52:39Z</time>
      </trkpt>
      <trkpt lat="45.77976" lon="4.97358">
        <ele>237</ele>
        <time>2015-04-26T11:52:41Z</time>
      </trkpt>
      <trkpt lat="45.77974" lon="4.97356">
        <ele>237</ele>
        <time>2015-04-26T11:52:42Z</time>
      </trkpt>
      <trkpt lat="45.7797" lon="4.97352">
        <ele>237</ele>
        <time>2015-04-26T11:52:44Z</time>
      </trkpt>
      <trkpt lat="45.77967" lon="4.9735">
        <ele>237</ele>
        <time>2015-04-26T11:52:46Z</time>
      </trkpt>
      <trkpt lat="45.77962" lon="4.97346">
        <ele>237</ele>
        <time>2015-04-26T11:52:48Z</time>
      </trkpt>
      <trkpt lat="45.77961" lon="4.97345">
        <ele>237</ele>
        <time>2015-04-26T11:52:49Z</time>
      </trkpt>
      <trkpt lat="45.77957" lon="4.97341">
        <ele>237</ele>
        <time>2015-04-26T11:52:51Z</time>
      </trkpt>
      <trkpt lat="45.77955" lon="4.97339">
        <ele>237</ele>
        <time>2015-04-26T11:52:52Z</time>
      </trkpt>
      <trkpt lat="45.77951" lon="4.97336">
        <ele>237</ele>
        <time>2015-04-26T11:52:54Z</time>
      </trkpt>
      <trkpt lat="45.77949" lon="4.97335">
        <ele>237</ele>
        <time>2015-04-26T11:52:55Z</time>
      </trkpt>
      <trkpt lat="45.77945" lon="4.9733">
        <ele>238</ele>
        <time>2015-04-26T11:52:57Z</time>
      </trkpt>
      <trkpt lat="45.77944" lon="4.97328">
        <ele>238</ele>
        <time>2015-04-26T11:52:58Z</time>
      </trkpt>
      <trkpt lat="45.77941" lon="4.97323">
        <ele>238</ele>
        <time>2015-04-26T11:53:00Z</time>
      </trkpt>
      <trkpt lat="45.77938" lon="4.97318">
        <ele>238</ele>
        <time>2015-04-26T11:53:02Z</time>
      </trkpt>
      <trkpt lat="45.77935" lon="4.97316">
        <ele>239</ele>
        <time>2015-04-26T11:53:04Z</time>
      </trkpt>
      <trkpt lat="45.77933" lon="4.97319">
        <ele>239</ele>
        <time>2015-04-26T11:53:06Z</time>
      </trkpt>
      <trkpt lat="45.77932" lon="4.97324">
        <ele>238</ele>
        <time>2015-04-26T11:53:08Z</time>
      </trkpt>
      <trkpt lat="45.77933" lon="4.97329">
        <ele>238</ele>
        <time>2015-04-26T11:53:10Z</time>
      </trkpt>
      <trkpt lat="45.77932" lon="4.97334">
        <ele>238</ele>
        <time>2015-04-26T11:53:12Z</time>
      </trkpt>
      <trkpt lat="45.77929" lon="4.97339">
        <ele>238</ele>
        <time>2015-04-26T11:53:14Z</time>
      </trkpt>
      <trkpt lat="45.77927" lon="4.97343">
        <ele>239</ele>
        <time>2015-04-26T11:53:16Z</time>
      </trkpt>
      <trkpt lat="45.77925" lon="4.97349">
        <ele>238</ele>
        <time>2015-04-26T11:53:18Z</time>
      </trkpt>
      <trkpt lat="45.77924" lon="4.97354">
        <ele>238</ele>
        <time>2015-04-26T11:53:20Z</time>
      </trkpt>
      <trkpt lat="45.77921" lon="4.97358">
        <ele>238</ele>
        <time>2015-04-26T11:53:22Z</time>
      </trkpt>
      <trkpt lat="45.77919" lon="4.97362">
        <ele>238</ele>
        <time>2015-04-26T11:53:24Z</time>
      </trkpt>
      <trkpt lat="45.77916" lon="4.97366">
        <ele>237</ele>
        <time>2015-04-26T11:53:26Z</time>
      </trkpt>
      <trkpt lat="45.77914" lon="4.97371">
        <ele>237</ele>
        <time>2015-04-26T11:53:28Z</time>
      </trkpt>
      <trkpt lat="45.77912" lon="4.97375">
        <ele>238</ele>
        <time>2015-04-26T11:53:30Z</time>
      </trkpt>
      <trkpt lat="45.7791" lon="4.97381">
        <ele>238</ele>
        <time>2015-04-26T11:53:32Z</time>
      </trkpt>
      <trkpt lat="45.77909" lon="4.97387">
        <ele>238</ele>
        <time>2015-04-26T11:53:34Z</time>
      </trkpt>
      <trkpt lat="45.77909" lon="4.97391">
        <ele>238</ele>
        <time>2015-04-26T11:53:35Z</time>
      </trkpt>
      <trkpt lat="45.77911" lon="4.97399">
        <ele>238</ele>
        <time>2015-04-26T11:53:37Z</time>
      </trkpt>
      <trkpt lat="45.77912" lon="4.97403">
        <ele>238</ele>
        <time>2015-04-26T11:53:38Z</time>
      </trkpt>
      <trkpt lat="45.77915" lon="4.9741">
        <ele>238</ele>
        <time>2015-04-26T11:53:40Z</time>
      </trkpt>
      <trkpt lat="45.77916" lon="4.97414">
        <ele>238</ele>
        <time>2015-04-26T11:53:41Z</time>
      </trkpt>
      <trkpt lat="45.77919" lon="4.97421">
        <ele>238</ele>
        <time>2015-04-26T11:53:43Z</time>
      </trkpt>
      <trkpt lat="45.7792" lon="4.97424">
        <ele>238</ele>
        <time>2015-04-26T11:53:44Z</time>
      </trkpt>
      <trkpt lat="45.77923" lon="4.9743">
        <ele>239</ele>
        <time>2015-04-26T11:53:46Z</time>
      </trkpt>
      <trkpt lat="45.77924" lon="4.97433">
        <ele>239</ele>
        <time>2015-04-26T11:53:47Z</time>
      </trkpt>
      <trkpt lat="45.77926" lon="4.97439">
        <ele>239</ele>
        <time>2015-04-26T11:53:49Z</time>
      </trkpt>
      <trkpt lat="45.77927" lon="4.97442">
        <ele>240</ele>
        <time>2015-04-26T11:53:50Z</time>
      </trkpt>
      <trkpt lat="45.7793" lon="4.97449">
        <ele>239</ele>
        <time>2015-04-26T11:53:52Z</time>
      </trkpt>
      <trkpt lat="45.77931" lon="4.97452">
        <ele>239</ele>
        <time>2015-04-26T11:53:53Z</time>
      </trkpt>
      <trkpt lat="45.77932" lon="4.97459">
        <ele>239</ele>
        <time>2015-04-26T11:53:55Z</time>
      </trkpt>
      <trkpt lat="45.77933" lon="4.97463">
        <ele>239</ele>
        <time>2015-04-26T11:53:56Z</time>
      </trkpt>
      <trkpt lat="45.77934" lon="4.9747">
        <ele>239</ele>
        <time>2015-04-26T11:53:58Z</time>
      </trkpt>
      <trkpt lat="45.77935" lon="4.97474">
        <ele>239</ele>
        <time>2015-04-26T11:53:59Z</time>
      </trkpt>
      <trkpt lat="45.77936" lon="4.97481">
        <ele>239</ele>
        <time>2015-04-26T11:54:01Z</time>
      </trkpt>
      <trkpt lat="45.77936" lon="4.97484">
        <ele>239</ele>
        <time>2015-04-26T11:54:02Z</time>
      </trkpt>
      <trkpt lat="45.77938" lon="4.97492">
        <ele>240</ele>
        <time>2015-04-26T11:54:04Z</time>
      </trkpt>
      <trkpt lat="45.77938" lon="4.97495">
        <ele>240</ele>
        <time>2015-04-26T11:54:05Z</time>
      </trkpt>
      <trkpt lat="45.7794" lon="4.97503">
        <ele>240</ele>
        <time>2015-04-26T11:54:07Z</time>
      </trkpt>
      <trkpt lat="45.7794" lon="4.97506">
        <ele>240</ele>
        <time>2015-04-26T11:54:08Z</time>
      </trkpt>
      <trkpt lat="45.77942" lon="4.97513">
        <ele>240</ele>
        <time>2015-04-26T11:54:10Z</time>
      </trkpt>
      <trkpt lat="45.77943" lon="4.97516">
        <ele>240</ele>
        <time>2015-04-26T11:54:11Z</time>
      </trkpt>
      <trkpt lat="45.77945" lon="4.97522">
        <ele>240</ele>
        <time>2015-04-26T11:54:13Z</time>
      </trkpt>
      <trkpt lat="45.77946" lon="4.97525">
        <ele>240</ele>
        <time>2015-04-26T11:54:14Z</time>
      </trkpt>
      <trkpt lat="45.77948" lon="4.97531">
        <ele>240</ele>
        <time>2015-04-26T11:54:16Z</time>
      </trkpt>
      <trkpt lat="45.7795" lon="4.97534">
        <ele>239</ele>
        <time>2015-04-26T11:54:17Z</time>
      </trkpt>
      <trkpt lat="45.77952" lon="4.9754">
        <ele>239</ele>
        <time>2015-04-26T11:54:19Z</time>
      </trkpt>
      <trkpt lat="45.77953" lon="4.97543">
        <ele>239</ele>
        <time>2015-04-26T11:54:20Z</time>
      </trkpt>
      <trkpt lat="45.77955" lon="4.97549">
        <ele>239</ele>
        <time>2015-04-26T11:54:22Z</time>
      </trkpt>
      <trkpt lat="45.77956" lon="4.97552">
        <ele>239</ele>
        <time>2015-04-26T11:54:23Z</time>
      </trkpt>
      <trkpt lat="45.77958" lon="4.97558">
        <ele>239</ele>
        <time>2015-04-26T11:54:25Z</time>
      </trkpt>
      <trkpt lat="45.7796" lon="4.97561">
        <ele>239</ele>
        <time>2015-04-26T11:54:26Z</time>
      </trkpt>
      <trkpt lat="45.77962" lon="4.97566">
        <ele>240</ele>
        <time>2015-04-26T11:54:28Z</time>
      </trkpt>
      <trkpt lat="45.77964" lon="4.97569">
        <ele>239</ele>
        <time>2015-04-26T11:54:29Z</time>
      </trkpt>
      <trkpt lat="45.77967" lon="4.97575">
        <ele>239</ele>
        <time>2015-04-26T11:54:31Z</time>
      </trkpt>
      <trkpt lat="45.77969" lon="4.97577">
        <ele>239</ele>
        <time>2015-04-26T11:54:32Z</time>
      </trkpt>
      <trkpt lat="45.77972" lon="4.97582">
        <ele>239</ele>
        <time>2015-04-26T11:54:34Z</time>
      </trkpt>
      <trkpt lat="45.77974" lon="4.97585">
        <ele>239.5</ele>
        <time>2015-04-26T11:54:36Z</time>
      </trkpt>
      <trkpt lat="45.77978" lon="4.97591">
        <ele>239</ele>
        <time>2015-04-26T11:54:38Z</time>
      </trkpt>
      <trkpt lat="45.7798" lon="4.97595">
        <ele>239.5</ele>
        <time>2015-04-26T11:54:40Z</time>
      </trkpt>
      <trkpt lat="45.77984" lon="4.976">
        <ele>239</ele>
        <time>2015-04-26T11:54:42Z</time>
      </trkpt>
      <trkpt lat="45.77987" lon="4.97603">
        <ele>239</ele>
        <time>2015-04-26T11:54:44Z</time>
      </trkpt>
      <trkpt lat="45.77992" lon="4.97606">
        <ele>239</ele>
        <time>2015-04-26T11:54:46Z</time>
      </trkpt>
      <trkpt lat="45.77995" lon="4.97609">
        <ele>238.5</ele>
        <time>2015-04-26T11:54:48Z</time>
      </trkpt>
      <trkpt lat="45.77998" lon="4.97612">
        <ele>238</ele>
        <time>2015-04-26T11:54:50Z</time>
      </trkpt>
      <trkpt lat="45.78001" lon="4.97614">
        <ele>238</ele>
        <time>2015-04-26T11:54:52Z</time>
      </trkpt>
      <trkpt lat="45.78004" lon="4.97617">
        <ele>238</ele>
        <time>2015-04-26T11:54:54Z</time>
      </trkpt>
      <trkpt lat="45.78007" lon="4.9762">
        <ele>238</ele>
        <time>2015-04-26T11:54:56Z</time>
      </trkpt>
      <trkpt lat="45.7801" lon="4.97622">
        <ele>239</ele>
        <time>2015-04-26T11:54:58Z</time>
      </trkpt>
      <trkpt lat="45.78012" lon="4.97624">
        <ele>237</ele>
        <time>2015-04-26T11:55:00Z</time>
      </trkpt>
      <trkpt lat="45.78015" lon="4.97627">
        <ele>237</ele>
        <time>2015-04-26T11:55:02Z</time>
      </trkpt>
      <trkpt lat="45.78018" lon="4.9763">
        <ele>236</ele>
        <time>2015-04-26T11:55:04Z</time>
      </trkpt>
      <trkpt lat="45.78022" lon="4.97633">
        <ele>237</ele>
        <time>2015-04-26T11:55:06Z</time>
      </trkpt>
      <trkpt lat="45.78026" lon="4.97637">
        <ele>237</ele>
        <time>2015-04-26T11:55:08Z</time>
      </trkpt>
      <trkpt lat="45.78028" lon="4.97639">
        <ele>237</ele>
        <time>2015-04-26T11:55:09Z</time>
      </trkpt>
      <trkpt lat="45.78032" lon="4.97643">
        <ele>237</ele>
        <time>2015-04-26T11:55:11Z</time>
      </trkpt>
      <trkpt lat="45.78034" lon="4.97645">
        <ele>237</ele>
        <time>2015-04-26T11:55:12Z</time>
      </trkpt>
      <trkpt lat="45.78038" lon="4.9765">
        <ele>237</ele>
        <time>2015-04-26T11:55:14Z</time>
      </trkpt>
      <trkpt lat="45.7804" lon="4.97652">
        <ele>237</ele>
        <time>2015-04-26T11:55:15Z</time>
      </trkpt>
      <trkpt lat="45.78045" lon="4.97656">
        <ele>238</ele>
        <time>2015-04-26T11:55:17Z</time>
      </trkpt>
      <trkpt lat="45.78047" lon="4.97658">
        <ele>238</ele>
        <time>2015-04-26T11:55:18Z</time>
      </trkpt>
      <trkpt lat="45.78052" lon="4.97662">
        <ele>238</ele>
        <time>2015-04-26T11:55:20Z</time>
      </trkpt>
      <trkpt lat="45.78054" lon="4.97663">
        <ele>238</ele>
        <time>2015-04-26T11:55:21Z</time>
      </trkpt>
      <trkpt lat="45.78058" lon="4.97666">
        <ele>238</ele>
        <time>2015-04-26T11:55:23Z</time>
      </trkpt>
      <trkpt lat="45.7806" lon="4.97668">
        <ele>237</ele>
        <time>2015-04-26T11:55:24Z</time>
      </trkpt>
      <trkpt lat="45.78064" lon="4.97672">
        <ele>237</ele>
        <time>2015-04-26T11:55:26Z</time>
      </trkpt>
      <trkpt lat="45.78067" lon="4.97673">
        <ele>237</ele>
        <time>2015-04-26T11:55:27Z</time>
      </trkpt>
      <trkpt lat="45.78071" lon="4.97677">
        <ele>237</ele>
        <time>2015-04-26T11:55:29Z</time>
      </trkpt>
      <trkpt lat="45.78073" lon="4.97679">
        <ele>237</ele>
        <time>2015-04-26T11:55:30Z</time>
      </trkpt>
      <trkpt lat="45.78079" lon="4.97681">
        <ele>237</ele>
        <time>2015-04-26T11:55:32Z</time>
      </trkpt>
      <trkpt lat="45.78081" lon="4.97683">
        <ele>237</ele>
        <time>2015-04-26T11:55:33Z</time>
      </trkpt>
      <trkpt lat="45.78087" lon="4.97687">
        <ele>237</ele>
        <time>2015-04-26T11:55:35Z</time>
      </trkpt>
      <trkpt lat="45.7809" lon="4.97689">
        <ele>237</ele>
        <time>2015-04-26T11:55:36Z</time>
      </trkpt>
      <trkpt lat="45.78096" lon="4.97693">
        <ele>237</ele>
        <time>2015-04-26T11:55:38Z</time>
      </trkpt>
      <trkpt lat="45.78099" lon="4.97695">
        <ele>237</ele>
        <time>2015-04-26T11:55:39Z</time>
      </trkpt>
      <trkpt lat="45.78104" lon="4.97699">
        <ele>237</ele>
        <time>2015-04-26T11:55:41Z</time>
      </trkpt>
      <trkpt lat="45.78107" lon="4.97701">
        <ele>237</ele>
        <time>2015-04-26T11:55:42Z</time>
      </trkpt>
      <trkpt lat="45.78112" lon="4.97705">
        <ele>237</ele>
        <time>2015-04-26T11:55:44Z</time>
      </trkpt>
      <trkpt lat="45.78114" lon="4.97708">
        <ele>236</ele>
        <time>2015-04-26T11:55:45Z</time>
      </trkpt>
      <trkpt lat="45.78119" lon="4.97713">
        <ele>236</ele>
        <time>2015-04-26T11:55:47Z</time>
      </trkpt>
      <trkpt lat="45.78122" lon="4.97715">
        <ele>236</ele>
        <time>2015-04-26T11:55:48Z</time>
      </trkpt>
      <trkpt lat="45.78126" lon="4.9772">
        <ele>236</ele>
        <time>2015-04-26T11:55:50Z</time>
      </trkpt>
      <trkpt lat="45.78129" lon="4.97723">
        <ele>236</ele>
        <time>2015-04-26T11:55:51Z</time>
      </trkpt>
      <trkpt lat="45.78133" lon="4.97728">
        <ele>236</ele>
        <time>2015-04-26T11:55:53Z</time>
      </trkpt>
      <trkpt lat="45.78136" lon="4.97731">
        <ele>236</ele>
        <time>2015-04-26T11:55:54Z</time>
      </trkpt>
      <trkpt lat="45.78141" lon="4.97736">
        <ele>237</ele>
        <time>2015-04-26T11:55:56Z</time>
      </trkpt>
      <trkpt lat="45.78144" lon="4.97738">
        <ele>237</ele>
        <time>2015-04-26T11:55:57Z</time>
      </trkpt>
      <trkpt lat="45.78149" lon="4.97743">
        <ele>237</ele>
        <time>2015-04-26T11:55:59Z</time>
      </trkpt>
      <trkpt lat="45.78152" lon="4.97745">
        <ele>237</ele>
        <time>2015-04-26T11:56:00Z</time>
      </trkpt>
      <trkpt lat="45.78157" lon="4.9775">
        <ele>236</ele>
        <time>2015-04-26T11:56:02Z</time>
      </trkpt>
      <trkpt lat="45.78159" lon="4.97753">
        <ele>236</ele>
        <time>2015-04-26T11:56:03Z</time>
      </trkpt>
      <trkpt lat="45.78164" lon="4.97759">
        <ele>236</ele>
        <time>2015-04-26T11:56:05Z</time>
      </trkpt>
      <trkpt lat="45.78166" lon="4.97762">
        <ele>236</ele>
        <time>2015-04-26T11:56:06Z</time>
      </trkpt>
      <trkpt lat="45.7817" lon="4.97768">
        <ele>235</ele>
        <time>2015-04-26T11:56:08Z</time>
      </trkpt>
      <trkpt lat="45.78172" lon="4.97771">
        <ele>236</ele>
        <time>2015-04-26T11:56:09Z</time>
      </trkpt>
      <trkpt lat="45.78177" lon="4.97777">
        <ele>235</ele>
        <time>2015-04-26T11:56:11Z</time>
      </trkpt>
      <trkpt lat="45.78179" lon="4.9778">
        <ele>236</ele>
        <time>2015-04-26T11:56:12Z</time>
      </trkpt>
      <trkpt lat="45.78182" lon="4.97785">
        <ele>236</ele>
        <time>2015-04-26T11:56:14Z</time>
      </trkpt>
      <trkpt lat="45.78184" lon="4.97787">
        <ele>236</ele>
        <time>2015-04-26T11:56:15Z</time>
      </trkpt>
      <trkpt lat="45.78187" lon="4.97792">
        <ele>236</ele>
        <time>2015-04-26T11:56:17Z</time>
      </trkpt>
      <trkpt lat="45.78189" lon="4.97795">
        <ele>236</ele>
        <time>2015-04-26T11:56:18Z</time>
      </trkpt>
      <trkpt lat="45.78192" lon="4.97799">
        <ele>236</ele>
        <time>2015-04-26T11:56:20Z</time>
      </trkpt>
      <trkpt lat="45.78194" lon="4.97801">
        <ele>236</ele>
        <time>2015-04-26T11:56:21Z</time>
      </trkpt>
      <trkpt lat="45.78198" lon="4.97805">
        <ele>236</ele>
        <time>2015-04-26T11:56:23Z</time>
      </trkpt>
      <trkpt lat="45.782" lon="4.97807">
        <ele>236</ele>
        <time>2015-04-26T11:56:24Z</time>
      </trkpt>
      <trkpt lat="45.78205" lon="4.9781">
        <ele>236</ele>
        <time>2015-04-26T11:56:27Z</time>
      </trkpt>
      <trkpt lat="45.78207" lon="4.97812">
        <ele>236</ele>
        <time>2015-04-26T11:56:27Z</time>
      </trkpt>
      <trkpt lat="45.78211" lon="4.97816">
        <ele>237</ele>
        <time>2015-04-26T11:56:29Z</time>
      </trkpt>
      <trkpt lat="45.78214" lon="4.97817">
        <ele>237</ele>
        <time>2015-04-26T11:56:30Z</time>
      </trkpt>
      <trkpt lat="45.78218" lon="4.97821">
        <ele>237</ele>
        <time>2015-04-26T11:56:32Z</time>
      </trkpt>
      <trkpt lat="45.78221" lon="4.97823">
        <ele>237</ele>
        <time>2015-04-26T11:56:33Z</time>
      </trkpt>
      <trkpt lat="45.78225" lon="4.97828">
        <ele>237</ele>
        <time>2015-04-26T11:56:35Z</time>
      </trkpt>
      <trkpt lat="45.78227" lon="4.9783">
        <ele>237</ele>
        <time>2015-04-26T11:56:36Z</time>
      </trkpt>
      <trkpt lat="45.78231" lon="4.97835">
        <ele>236</ele>
        <time>2015-04-26T11:56:38Z</time>
      </trkpt>
      <trkpt lat="45.78233" lon="4.97837">
        <ele>237</ele>
        <time>2015-04-26T11:56:39Z</time>
      </trkpt>
      <trkpt lat="45.78237" lon="4.97843">
        <ele>237</ele>
        <time>2015-04-26T11:56:41Z</time>
      </trkpt>
      <trkpt lat="45.78239" lon="4.97845">
        <ele>236</ele>
        <time>2015-04-26T11:56:42Z</time>
      </trkpt>
      <trkpt lat="45.78243" lon="4.97851">
        <ele>236</ele>
        <time>2015-04-26T11:56:44Z</time>
      </trkpt>
      <trkpt lat="45.78245" lon="4.97853">
        <ele>236</ele>
        <time>2015-04-26T11:56:45Z</time>
      </trkpt>
      <trkpt lat="45.7825" lon="4.97858">
        <ele>236</ele>
        <time>2015-04-26T11:56:47Z</time>
      </trkpt>
      <trkpt lat="45.78252" lon="4.97861">
        <ele>236</ele>
        <time>2015-04-26T11:56:48Z</time>
      </trkpt>
      <trkpt lat="45.78256" lon="4.97866">
        <ele>236</ele>
        <time>2015-04-26T11:56:50Z</time>
      </trkpt>
      <trkpt lat="45.78258" lon="4.97868">
        <ele>236</ele>
        <time>2015-04-26T11:56:51Z</time>
      </trkpt>
      <trkpt lat="45.78262" lon="4.97874">
        <ele>236</ele>
        <time>2015-04-26T11:56:53Z</time>
      </trkpt>
      <trkpt lat="45.78264" lon="4.97877">
        <ele>236</ele>
        <time>2015-04-26T11:56:54Z</time>
      </trkpt>
      <trkpt lat="45.78269" lon="4.97883">
        <ele>235</ele>
        <time>2015-04-26T11:56:56Z</time>
      </trkpt>
      <trkpt lat="45.78271" lon="4.97886">
        <ele>235</ele>
        <time>2015-04-26T11:56:57Z</time>
      </trkpt>
      <trkpt lat="45.78275" lon="4.97892">
        <ele>235</ele>
        <time>2015-04-26T11:56:59Z</time>
      </trkpt>
      <trkpt lat="45.78277" lon="4.97895">
        <ele>235</ele>
        <time>2015-04-26T11:57:00Z</time>
      </trkpt>
      <trkpt lat="45.78281" lon="4.97901">
        <ele>235</ele>
        <time>2015-04-26T11:57:02Z</time>
      </trkpt>
      <trkpt lat="45.78283" lon="4.97904">
        <ele>236</ele>
        <time>2015-04-26T11:57:03Z</time>
      </trkpt>
      <trkpt lat="45.78286" lon="4.97909">
        <ele>236</ele>
        <time>2015-04-26T11:57:05Z</time>
      </trkpt>
      <trkpt lat="45.78288" lon="4.97911">
        <ele>236</ele>
        <time>2015-04-26T11:57:06Z</time>
      </trkpt>
      <trkpt lat="45.78291" lon="4.97915">
        <ele>236</ele>
        <time>2015-04-26T11:57:08Z</time>
      </trkpt>
      <trkpt lat="45.78293" lon="4.97918">
        <ele>236</ele>
        <time>2015-04-26T11:57:10Z</time>
      </trkpt>
      <trkpt lat="45.78297" lon="4.97924">
        <ele>236</ele>
        <time>2015-04-26T11:57:12Z</time>
      </trkpt>
      <trkpt lat="45.783" lon="4.97927">
        <ele>236</ele>
        <time>2015-04-26T11:57:14Z</time>
      </trkpt>
      <trkpt lat="45.78304" lon="4.97933">
        <ele>236</ele>
        <time>2015-04-26T11:57:16Z</time>
      </trkpt>
      <trkpt lat="45.78305" lon="4.97935">
        <ele>236</ele>
        <time>2015-04-26T11:57:17Z</time>
      </trkpt>
      <trkpt lat="45.78309" lon="4.97941">
        <ele>236</ele>
        <time>2015-04-26T11:57:19Z</time>
      </trkpt>
      <trkpt lat="45.78311" lon="4.97943">
        <ele>236</ele>
        <time>2015-04-26T11:57:20Z</time>
      </trkpt>
      <trkpt lat="45.78314" lon="4.97949">
        <ele>237</ele>
        <time>2015-04-26T11:57:22Z</time>
      </trkpt>
      <trkpt lat="45.78316" lon="4.97952">
        <ele>237</ele>
        <time>2015-04-26T11:57:23Z</time>
      </trkpt>
      <trkpt lat="45.78319" lon="4.97957">
        <ele>237</ele>
        <time>2015-04-26T11:57:25Z</time>
      </trkpt>
      <trkpt lat="45.78321" lon="4.9796">
        <ele>237</ele>
        <time>2015-04-26T11:57:26Z</time>
      </trkpt>
      <trkpt lat="45.78325" lon="4.97966">
        <ele>236</ele>
        <time>2015-04-26T11:57:28Z</time>
      </trkpt>
      <trkpt lat="45.78327" lon="4.97968">
        <ele>236</ele>
        <time>2015-04-26T11:57:29Z</time>
      </trkpt>
      <trkpt lat="45.78332" lon="4.97973">
        <ele>236</ele>
        <time>2015-04-26T11:57:31Z</time>
      </trkpt>
      <trkpt lat="45.78334" lon="4.97976">
        <ele>236</ele>
        <time>2015-04-26T11:57:32Z</time>
      </trkpt>
      <trkpt lat="45.78339" lon="4.97981">
        <ele>236</ele>
        <time>2015-04-26T11:57:34Z</time>
      </trkpt>
      <trkpt lat="45.78342" lon="4.97984">
        <ele>236</ele>
        <time>2015-04-26T11:57:35Z</time>
      </trkpt>
      <trkpt lat="45.78348" lon="4.97989">
        <ele>236</ele>
        <time>2015-04-26T11:57:37Z</time>
      </trkpt>
      <trkpt lat="45.78352" lon="4.97992">
        <ele>236</ele>
        <time>2015-04-26T11:57:38Z</time>
      </trkpt>
      <trkpt lat="45.78358" lon="4.97998">
        <ele>236</ele>
        <time>2015-04-26T11:57:40Z</time>
      </trkpt>
      <trkpt lat="45.78361" lon="4.98001">
        <ele>236</ele>
        <time>2015-04-26T11:57:41Z</time>
      </trkpt>
      <trkpt lat="45.78367" lon="4.98007">
        <ele>236</ele>
        <time>2015-04-26T11:57:43Z</time>
      </trkpt>
      <trkpt lat="45.7837" lon="4.9801">
        <ele>236</ele>
        <time>2015-04-26T11:57:44Z</time>
      </trkpt>
      <trkpt lat="45.78376" lon="4.98016">
        <ele>236</ele>
        <time>2015-04-26T11:57:46Z</time>
      </trkpt>
      <trkpt lat="45.78379" lon="4.98019">
        <ele>236</ele>
        <time>2015-04-26T11:57:47Z</time>
      </trkpt>
      <trkpt lat="45.78384" lon="4.98025">
        <ele>237</ele>
        <time>2015-04-26T11:57:49Z</time>
      </trkpt>
      <trkpt lat="45.78387" lon="4.98028">
        <ele>237</ele>
        <time>2015-04-26T11:57:50Z</time>
      </trkpt>
      <trkpt lat="45.78393" lon="4.98035">
        <ele>237</ele>
        <time>2015-04-26T11:57:52Z</time>
      </trkpt>
      <trkpt lat="45.78396" lon="4.98039">
        <ele>236</ele>
        <time>2015-04-26T11:57:53Z</time>
      </trkpt>
      <trkpt lat="45.78403" lon="4.98046">
        <ele>236</ele>
        <time>2015-04-26T11:57:55Z</time>
      </trkpt>
      <trkpt lat="45.78406" lon="4.9805">
        <ele>236</ele>
        <time>2015-04-26T11:57:56Z</time>
      </trkpt>
      <trkpt lat="45.78411" lon="4.98056">
        <ele>236</ele>
        <time>2015-04-26T11:57:58Z</time>
      </trkpt>
      <trkpt lat="45.78413" lon="4.98059">
        <ele>236</ele>
        <time>2015-04-26T11:57:59Z</time>
      </trkpt>
      <trkpt lat="45.78418" lon="4.98065">
        <ele>236</ele>
        <time>2015-04-26T11:58:01Z</time>
      </trkpt>
      <trkpt lat="45.78421" lon="4.98068">
        <ele>237</ele>
        <time>2015-04-26T11:58:02Z</time>
      </trkpt>
      <trkpt lat="45.78426" lon="4.98074">
        <ele>237</ele>
        <time>2015-04-26T11:58:04Z</time>
      </trkpt>
      <trkpt lat="45.78429" lon="4.98076">
        <ele>237</ele>
        <time>2015-04-26T11:58:05Z</time>
      </trkpt>
      <trkpt lat="45.78435" lon="4.98081">
        <ele>237</ele>
        <time>2015-04-26T11:58:07Z</time>
      </trkpt>
      <trkpt lat="45.78439" lon="4.98085">
        <ele>237</ele>
        <time>2015-04-26T11:58:08Z</time>
      </trkpt>
      <trkpt lat="45.78442" lon="4.9809">
        <ele>238</ele>
        <time>2015-04-26T11:58:09Z</time>
      </trkpt>
      <trkpt lat="45.78446" lon="4.98097">
        <ele>237</ele>
        <time>2015-04-26T11:58:10Z</time>
      </trkpt>
      <trkpt lat="45.78449" lon="4.98102">
        <ele>237</ele>
        <time>2015-04-26T11:58:11Z</time>
      </trkpt>
      <trkpt lat="45.78453" lon="4.98105">
        <ele>237</ele>
        <time>2015-04-26T11:58:12Z</time>
      </trkpt>
      <trkpt lat="45.78457" lon="4.98108">
        <ele>237</ele>
        <time>2015-04-26T11:58:13Z</time>
      </trkpt>
      <trkpt lat="45.78464" lon="4.98115">
        <ele>238</ele>
        <time>2015-04-26T11:58:15Z</time>
      </trkpt>
      <trkpt lat="45.78467" lon="4.9812">
        <ele>238</ele>
        <time>2015-04-26T11:58:16Z</time>
      </trkpt>
      <trkpt lat="45.78474" lon="4.98128">
        <ele>237</ele>
        <time>2015-04-26T11:58:18Z</time>
      </trkpt>
      <trkpt lat="45.78477" lon="4.98131">
        <ele>237</ele>
        <time>2015-04-26T11:58:19Z</time>
      </trkpt>
      <trkpt lat="45.78483" lon="4.98139">
        <ele>237</ele>
        <time>2015-04-26T11:58:21Z</time>
      </trkpt>
      <trkpt lat="45.78485" lon="4.98143">
        <ele>236</ele>
        <time>2015-04-26T11:58:22Z</time>
      </trkpt>
      <trkpt lat="45.7849" lon="4.98149">
        <ele>236</ele>
        <time>2015-04-26T11:58:24Z</time>
      </trkpt>
      <trkpt lat="45.78493" lon="4.98152">
        <ele>236</ele>
        <time>2015-04-26T11:58:25Z</time>
      </trkpt>
      <trkpt lat="45.78498" lon="4.98157">
        <ele>236</ele>
        <time>2015-04-26T11:58:27Z</time>
      </trkpt>
      <trkpt lat="45.78501" lon="4.98159">
        <ele>237</ele>
        <time>2015-04-26T11:58:28Z</time>
      </trkpt>
      <trkpt lat="45.78506" lon="4.98166">
        <ele>237</ele>
        <time>2015-04-26T11:58:30Z</time>
      </trkpt>
      <trkpt lat="45.78508" lon="4.98169">
        <ele>237</ele>
        <time>2015-04-26T11:58:31Z</time>
      </trkpt>
      <trkpt lat="45.78512" lon="4.98177">
        <ele>236</ele>
        <time>2015-04-26T11:58:33Z</time>
      </trkpt>
      <trkpt lat="45.78515" lon="4.98181">
        <ele>237</ele>
        <time>2015-04-26T11:58:34Z</time>
      </trkpt>
      <trkpt lat="45.7852" lon="4.98192">
        <ele>238</ele>
        <time>2015-04-26T11:58:36Z</time>
      </trkpt>
      <trkpt lat="45.78522" lon="4.98198">
        <ele>238</ele>
        <time>2015-04-26T11:58:37Z</time>
      </trkpt>
      <trkpt lat="45.78524" lon="4.98206">
        <ele>238</ele>
        <time>2015-04-26T11:58:38Z</time>
      </trkpt>
      <trkpt lat="45.78527" lon="4.98209">
        <ele>238</ele>
        <time>2015-04-26T11:58:39Z</time>
      </trkpt>
      <trkpt lat="45.78532" lon="4.9821">
        <ele>238</ele>
        <time>2015-04-26T11:58:41Z</time>
      </trkpt>
      <trkpt lat="45.78535" lon="4.9821">
        <ele>238.5</ele>
        <time>2015-04-26T11:58:44Z</time>
      </trkpt>
      <trkpt lat="45.78538" lon="4.98212">
        <ele>238.8</ele>
        <time>2015-04-26T11:58:47Z</time>
      </trkpt>
      <trkpt lat="45.78538" lon="4.98212">
        <ele>238.8</ele>
        <time>2015-04-26T11:58:51Z</time>
      </trkpt>
      <trkpt lat="45.7854" lon="4.98216">
        <ele>239</ele>
        <time>2015-04-26T11:58:55Z</time>
      </trkpt>
      <trkpt lat="45.78542" lon="4.98218">
        <ele>239</ele>
        <time>2015-04-26T11:58:59Z</time>
      </trkpt>
      <trkpt lat="45.78545" lon="4.98218">
        <ele>239</ele>
        <time>2015-04-26T11:59:04Z</time>
      </trkpt>
      <trkpt lat="45.78548" lon="4.98215">
        <ele>239</ele>
        <time>2015-04-26T11:59:08Z</time>
      </trkpt>
      <trkpt lat="45.7855" lon="4.98209">
        <ele>240</ele>
        <time>2015-04-26T11:59:10Z</time>
      </trkpt>
      <trkpt lat="45.78551" lon="4.98206">
        <ele>240</ele>
        <time>2015-04-26T11:59:11Z</time>
      </trkpt>
      <trkpt lat="45.78554" lon="4.982">
        <ele>239</ele>
        <time>2015-04-26T11:59:13Z</time>
      </trkpt>
      <trkpt lat="45.78556" lon="4.98196">
        <ele>239</ele>
        <time>2015-04-26T11:59:14Z</time>
      </trkpt>
      <trkpt lat="45.78561" lon="4.98191">
        <ele>239</ele>
        <time>2015-04-26T11:59:16Z</time>
      </trkpt>
      <trkpt lat="45.78564" lon="4.98189">
        <ele>239</ele>
        <time>2015-04-26T11:59:17Z</time>
      </trkpt>
      <trkpt lat="45.7857" lon="4.98188">
        <ele>239</ele>
        <time>2015-04-26T11:59:19Z</time>
      </trkpt>
      <trkpt lat="45.78573" lon="4.98188">
        <ele>240</ele>
        <time>2015-04-26T11:59:20Z</time>
      </trkpt>
      <trkpt lat="45.78579" lon="4.98188">
        <ele>240</ele>
        <time>2015-04-26T11:59:22Z</time>
      </trkpt>
      <trkpt lat="45.78582" lon="4.98189">
        <ele>240</ele>
        <time>2015-04-26T11:59:23Z</time>
      </trkpt>
      <trkpt lat="45.78587" lon="4.98192">
        <ele>240</ele>
        <time>2015-04-26T11:59:25Z</time>
      </trkpt>
      <trkpt lat="45.78589" lon="4.98194">
        <ele>240</ele>
        <time>2015-04-26T11:59:26Z</time>
      </trkpt>
      <trkpt lat="45.78594" lon="4.98198">
        <ele>240</ele>
        <time>2015-04-26T11:59:28Z</time>
      </trkpt>
      <trkpt lat="45.78597" lon="4.982">
        <ele>239</ele>
        <time>2015-04-26T11:59:29Z</time>
      </trkpt>
      <trkpt lat="45.78603" lon="4.98204">
        <ele>239</ele>
        <time>2015-04-26T11:59:31Z</time>
      </trkpt>
      <trkpt lat="45.78606" lon="4.98205">
        <ele>239</ele>
        <time>2015-04-26T11:59:32Z</time>
      </trkpt>
      <trkpt lat="45.78611" lon="4.98208">
        <ele>238</ele>
        <time>2015-04-26T11:59:34Z</time>
      </trkpt>
      <trkpt lat="45.78613" lon="4.9821">
        <ele>238</ele>
        <time>2015-04-26T11:59:36Z</time>
      </trkpt>
      <trkpt lat="45.78617" lon="4.98213">
        <ele>238</ele>
        <time>2015-04-26T11:59:38Z</time>
      </trkpt>
      <trkpt lat="45.7862" lon="4.98215">
        <ele>238.5</ele>
        <time>2015-04-26T11:59:42Z</time>
      </trkpt>
      <trkpt lat="45.78623" lon="4.98215">
        <ele>238.8</ele>
        <time>2015-04-26T11:59:47Z</time>
      </trkpt>
      <trkpt lat="45.78626" lon="4.98213">
        <ele>238.8</ele>
        <time>2015-04-26T11:59:52Z</time>
      </trkpt>
      <trkpt lat="45.78629" lon="4.98212">
        <ele>239.4</ele>
        <time>2015-04-26T11:59:56Z</time>
      </trkpt>
      <trkpt lat="45.78629" lon="4.98212">
        <ele>239.4</ele>
        <time>2015-04-26T12:00:02Z</time>
      </trkpt>
      <trkpt lat="45.78632" lon="4.98212">
        <ele>238</ele>
        <time>2015-04-26T12:00:04Z</time>
      </trkpt>
      <trkpt lat="45.78632" lon="4.98212">
        <ele>238</ele>
        <time>2015-04-26T12:00:11Z</time>
      </trkpt>
      <trkpt lat="45.78635" lon="4.98211">
        <ele>237.6</ele>
        <time>2015-04-26T12:00:13Z</time>
      </trkpt>
      <trkpt lat="45.78635" lon="4.98211">
        <ele>237.6</ele>
        <time>2015-04-26T12:00:17Z</time>
      </trkpt>
      <trkpt lat="45.78638" lon="4.98209">
        <ele>237.5</ele>
        <time>2015-04-26T12:00:19Z</time>
      </trkpt>
      <trkpt lat="45.78638" lon="4.98209">
        <ele>237.5</ele>
        <time>2015-04-26T12:00:22Z</time>
      </trkpt>
      <trkpt lat="45.78641" lon="4.98206">
        <ele>238.2</ele>
        <time>2015-04-26T12:00:24Z</time>
      </trkpt>
      <trkpt lat="45.78641" lon="4.98206">
        <ele>238.2</ele>
        <time>2015-04-26T12:00:28Z</time>
      </trkpt>
      <trkpt lat="45.78644" lon="4.98205">
        <ele>238.2</ele>
        <time>2015-04-26T12:00:30Z</time>
      </trkpt>
      <trkpt lat="45.78644" lon="4.98205">
        <ele>238.2</ele>
        <time>2015-04-26T12:00:37Z</time>
      </trkpt>
      <trkpt lat="45.78647" lon="4.98204">
        <ele>238.2</ele>
        <time>2015-04-26T12:00:39Z</time>
      </trkpt>
      <trkpt lat="45.78647" lon="4.98204">
        <ele>238.2</ele>
        <time>2015-04-26T12:00:43Z</time>
      </trkpt>
      <trkpt lat="45.7865" lon="4.98203">
        <ele>238</ele>
        <time>2015-04-26T12:00:45Z</time>
      </trkpt>
      <trkpt lat="45.7865" lon="4.98203">
        <ele>238</ele>
        <time>2015-04-26T12:00:49Z</time>
      </trkpt>
      <trkpt lat="45.78653" lon="4.982">
        <ele>237.2</ele>
        <time>2015-04-26T12:00:51Z</time>
      </trkpt>
      <trkpt lat="45.78653" lon="4.982">
        <ele>237.2</ele>
        <time>2015-04-26T12:00:55Z</time>
      </trkpt>
      <trkpt lat="45.78655" lon="4.98198">
        <ele>236.2</ele>
        <time>2015-04-26T12:00:57Z</time>
      </trkpt>
      <trkpt lat="45.78655" lon="4.98198">
        <ele>236.2</ele>
        <time>2015-04-26T12:01:02Z</time>
      </trkpt>
      <trkpt lat="45.78658" lon="4.98196">
        <ele>236.6</ele>
        <time>2015-04-26T12:01:04Z</time>
      </trkpt>
      <trkpt lat="45.78658" lon="4.98196">
        <ele>236.6</ele>
        <time>2015-04-26T12:01:08Z</time>
      </trkpt>
      <trkpt lat="45.78661" lon="4.98196">
        <ele>237.1</ele>
        <time>2015-04-26T12:01:10Z</time>
      </trkpt>
      <trkpt lat="45.78661" lon="4.98196">
        <ele>237.1</ele>
        <time>2015-04-26T12:01:17Z</time>
      </trkpt>
      <trkpt lat="45.78664" lon="4.98197">
        <ele>236.4</ele>
        <time>2015-04-26T12:01:19Z</time>
      </trkpt>
      <trkpt lat="45.78664" lon="4.98197">
        <ele>236.4</ele>
        <time>2015-04-26T12:01:26Z</time>
      </trkpt>
      <trkpt lat="45.78668" lon="4.98198">
        <ele>236</ele>
        <time>2015-04-26T12:01:28Z</time>
      </trkpt>
      <trkpt lat="45.78668" lon="4.98198">
        <ele>236</ele>
        <time>2015-04-26T12:01:34Z</time>
      </trkpt>
      <trkpt lat="45.78671" lon="4.98199">
        <ele>233.7</ele>
        <time>2015-04-26T12:01:36Z</time>
      </trkpt>
      <trkpt lat="45.78671" lon="4.98199">
        <ele>233.7</ele>
        <time>2015-04-26T12:06:33Z</time>
      </trkpt>
      <trkpt lat="45.7867" lon="4.98199">
        <ele>233.8</ele>
        <time>2015-04-26T12:06:35Z</time>
      </trkpt>
      <trkpt lat="45.7867" lon="4.98199">
        <ele>233.8</ele>
        <time>2015-04-26T12:09:01Z</time>
      </trkpt>
      <trkpt lat="45.78671" lon="4.98193">
        <ele>234</ele>
        <time>2015-04-26T12:09:03Z</time>
      </trkpt>
      <trkpt lat="45.78671" lon="4.98196">
        <ele>233.3</ele>
        <time>2015-04-26T12:09:04Z</time>
      </trkpt>
      <trkpt lat="45.78671" lon="4.98196">
        <ele>233.3</ele>
        <time>2015-04-26T12:09:43Z</time>
      </trkpt>
      <trkpt lat="45.78671" lon="4.98197">
        <ele>233.2</ele>
        <time>2015-04-26T12:15:51Z</time>
      </trkpt>
    </trkseg>
  </trk>
</gpx>